Flight Track Log - Related Links

Times and Time Zones

All times are in EDT time to prevent confusion due to time zone crossing. See the A6-EWE flight status page for this flight to view local times or setup timezone preferences in your user account.

Time Position Orientation Groundspeed Altitude Reporting Facility
EDT Latitude Longitude Course Direction KTS MPH feet Rate Location/Type
Tue 07:17:17 PM 25.3060 55.2820 313° West 226 260 2,900  Level FlightAware ADS-B
Tue 07:17:32 PM 25.3180 55.2750 332° Northwest 236 272 3,200 1,467 Climbing FlightAware ADS-B
Tue 07:18:02 PM 25.3470 55.2570 331° Northwest 249 287 4,000 873 Climbing FlightAware ADS-B
Tue 07:18:27 PM 25.3710 55.2420 331° Northwest 249 287 4,000 2,400 Level FlightAware ADS-B
Tue 07:18:52 PM 25.4060 55.2210 332° Northwest 273 314 6,000 3,600 Climbing FlightAware ADS-B
Tue 07:19:07 PM 25.4240 55.2160 346° North 276 318 6,400 1,200 Climbing FlightAware ADS-B
Tue 07:19:32 PM 25.4520 55.2260 18° North 289 333 6,800 480 Climbing FlightAware ADS-B
Tue 07:19:57 PM 25.4850 55.2330 11° North 289 333 6,800 50 Level FlightAware ADS-B
Tue 07:22:00 PM 25.7199 55.1072 334° Northwest  Level Estimated
Tue 07:23:00 PM 25.8349 55.0455 334° Northwest  Level Estimated
Tue 07:24:00 PM 25.9499 54.9836 334° Northwest  Level Estimated
Tue 07:25:00 PM 26.0648 54.9215 334° Northwest  Level Estimated
Tue 07:26:00 PM 26.1798 54.8594 334° Northwest  Level Estimated
Tue 07:27:00 PM 26.2946 54.7971 334° Northwest  Level Estimated
Tue 07:28:00 PM 26.4095 54.7347 334° Northwest  Level Estimated
Tue 07:29:00 PM 26.5244 54.6722 334° Northwest  Level Estimated
Tue 07:30:00 PM 26.6392 54.6096 334° Northwest  Level Estimated
Tue 07:31:00 PM 26.7540 54.5468 334° Northwest  Level Estimated
Tue 07:32:00 PM 26.8687 54.4839 334° Northwest  Level Estimated
Tue 07:33:00 PM 26.9835 54.4209 334° Northwest  Level Estimated
Tue 07:34:00 PM 27.0982 54.3577 334° Northwest  Level Estimated
Tue 07:35:00 PM 27.2129 54.2945 334° Northwest  Level Estimated
Tue 07:36:00 PM 27.3275 54.2311 334° Northwest  Level Estimated
Tue 07:37:00 PM 27.4422 54.1675 334° Northwest  Level Estimated
Tue 07:38:00 PM 27.5567 54.1039 334° Northwest  Level Estimated
Tue 07:39:00 PM 27.6713 54.0400 334° Northwest  Level Estimated
Tue 07:40:00 PM 27.7859 53.9761 334° Northwest  Level Estimated
Tue 07:41:00 PM 27.9004 53.9120 334° Northwest  Level Estimated
Tue 07:42:00 PM 28.0149 53.8478 334° Northwest  Level Estimated
Tue 07:43:00 PM 28.1293 53.7835 334° Northwest  Level Estimated
Tue 07:44:00 PM 28.2437 53.7190 334° Northwest  Level Estimated
Tue 07:45:00 PM 28.3581 53.6544 334° Northwest  Level Estimated
Tue 07:46:00 PM 28.4725 53.5896 334° Northwest  Level Estimated
Tue 07:47:00 PM 28.5868 53.5247 334° Northwest  Level Estimated
Tue 07:48:00 PM 28.7011 53.4597 333° Northwest  Level Estimated
Tue 07:49:00 PM 28.8153 53.3945 333° Northwest  Level Estimated
Tue 07:50:00 PM 28.9296 53.3292 333° Northwest  Level Estimated
Tue 07:51:00 PM 29.0438 53.2637 333° Northwest  Level Estimated
Tue 07:52:00 PM 29.1579 53.1981 333° Northwest  Level Estimated
Tue 07:53:00 PM 29.2721 53.1323 333° Northwest  Level Estimated
Tue 07:54:00 PM 29.3862 53.0664 333° Northwest  Level Estimated
Tue 07:55:00 PM 29.5003 53.0003 333° Northwest  Level Estimated
Tue 07:56:00 PM 29.6143 52.9341 333° Northwest  Level Estimated
Tue 07:57:00 PM 29.7283 52.8678 333° Northwest  Level Estimated
Tue 07:58:00 PM 29.8423 52.8013 333° Northwest  Level Estimated
Tue 07:59:00 PM 29.9562 52.7346 333° Northwest  Level Estimated
Tue 08:00:00 PM 30.0701 52.6678 333° Northwest  Level Estimated
Tue 08:01:00 PM 30.1840 52.6008 333° Northwest  Level Estimated
Tue 08:02:00 PM 30.2978 52.5337 333° Northwest  Level Estimated
Tue 08:03:00 PM 30.4116 52.4664 333° Northwest  Level Estimated
Tue 08:04:00 PM 30.5254 52.3990 333° Northwest  Level Estimated
Tue 08:05:00 PM 30.6391 52.3314 333° Northwest  Level Estimated
Tue 08:06:00 PM 30.7528 52.2636 333° Northwest  Level Estimated
Tue 08:07:00 PM 30.8665 52.1957 333° Northwest  Level Estimated
Tue 08:08:00 PM 30.9801 52.1276 333° Northwest  Level Estimated
Tue 08:09:00 PM 31.0937 52.0594 333° Northwest  Level Estimated
Tue 08:10:00 PM 31.2073 51.9910 333° Northwest  Level Estimated
Tue 08:11:00 PM 31.3208 51.9224 333° Northwest  Level Estimated
Tue 08:12:00 PM 31.4343 51.8537 333° Northwest  Level Estimated
Tue 08:13:00 PM 31.5477 51.7848 333° Northwest  Level Estimated
Tue 08:14:00 PM 31.6611 51.7157 333° Northwest  Level Estimated
Tue 08:15:00 PM 31.7745 51.6465 333° Northwest  Level Estimated
Tue 08:16:00 PM 31.8878 51.5771 333° Northwest  Level Estimated
Tue 08:17:00 PM 32.0011 51.5075 332° Northwest  Level Estimated
Tue 08:18:00 PM 32.1144 51.4378 332° Northwest  Level Estimated
Tue 08:19:00 PM 32.2276 51.3679 332° Northwest  Level Estimated
Tue 08:20:00 PM 32.3408 51.2978 332° Northwest  Level Estimated
Tue 08:21:00 PM 32.4539 51.2275 332° Northwest  Level Estimated
Tue 08:22:00 PM 32.5671 51.1571 332° Northwest  Level Estimated
Tue 08:23:00 PM 32.6801 51.0864 332° Northwest  Level Estimated
Tue 08:24:00 PM 32.7932 51.0156 332° Northwest  Level Estimated
Tue 08:25:00 PM 32.9061 50.9447 332° Northwest  Level Estimated
Tue 08:26:00 PM 33.0191 50.8735 332° Northwest  Level Estimated
Tue 08:27:00 PM 33.1320 50.8022 332° Northwest  Level Estimated
Tue 08:28:00 PM 33.2449 50.7306 332° Northwest  Level Estimated
Tue 08:29:00 PM 33.3577 50.6589 332° Northwest  Level Estimated
Tue 08:30:00 PM 33.4705 50.5870 332° Northwest  Level Estimated
Tue 08:31:00 PM 33.5832 50.5149 332° Northwest  Level Estimated
Tue 08:32:00 PM 33.6959 50.4426 332° Northwest  Level Estimated
Tue 08:33:00 PM 33.8086 50.3702 332° Northwest  Level Estimated
Tue 08:34:00 PM 33.9212 50.2975 332° Northwest  Level Estimated
Tue 08:35:00 PM 34.0337 50.2247 332° Northwest  Level Estimated
Tue 08:36:00 PM 34.1463 50.1516 332° Northwest  Level Estimated
Tue 08:37:00 PM 34.2588 50.0784 332° Northwest  Level Estimated
Tue 08:38:00 PM 34.3712 50.0049 332° Northwest  Level Estimated
Tue 08:39:00 PM 34.4836 49.9313 332° Northwest  Level Estimated
Tue 08:40:00 PM 34.5959 49.8575 332° Northwest  Level Estimated
Tue 08:41:00 PM 34.7082 49.7834 332° Northwest  Level Estimated
Tue 08:42:00 PM 34.8205 49.7092 332° Northwest  Level Estimated
Tue 08:43:00 PM 34.9327 49.6348 331° Northwest  Level Estimated
Tue 08:44:00 PM 35.0449 49.5601 331° Northwest  Level Estimated
Tue 08:45:00 PM 35.1570 49.4853 331° Northwest  Level Estimated
Tue 08:46:00 PM 35.2691 49.4102 331° Northwest  Level Estimated
Tue 08:47:00 PM 35.3811 49.3350 331° Northwest  Level Estimated
Tue 08:48:00 PM 35.4931 49.2595 331° Northwest  Level Estimated
Tue 08:49:00 PM 35.6051 49.1838 331° Northwest  Level Estimated
Tue 08:50:00 PM 35.7170 49.1079 331° Northwest  Level Estimated
Tue 08:51:00 PM 35.8288 49.0318 331° Northwest  Level Estimated
Tue 08:52:00 PM 35.9406 48.9555 331° Northwest  Level Estimated
Tue 08:53:00 PM 36.0523 48.8790 331° Northwest  Level Estimated
Tue 08:54:00 PM 36.1641 48.8022 331° Northwest  Level Estimated
Tue 08:55:00 PM 36.2757 48.7253 331° Northwest  Level Estimated
Tue 08:56:00 PM 36.3873 48.6481 331° Northwest  Level Estimated
Tue 08:57:00 PM 36.4989 48.5707 331° Northwest  Level Estimated
Tue 08:58:00 PM 36.6104 48.4930 331° Northwest  Level Estimated
Tue 08:59:00 PM 36.7218 48.4152 331° Northwest  Level Estimated
Tue 09:00:00 PM 36.8332 48.3371 331° Northwest  Level Estimated
Tue 09:01:00 PM 36.9445 48.2588 331° Northwest  Level Estimated
Tue 09:02:00 PM 37.0559 48.1802 331° Northwest  Level Estimated
Tue 09:03:00 PM 37.1671 48.1014 331° Northwest  Level Estimated
Tue 09:04:00 PM 37.2783 48.0224 331° Northwest  Level Estimated
Tue 09:05:00 PM 37.3894 47.9432 330° Northwest  Level Estimated
Tue 09:06:00 PM 37.5005 47.8637 330° Northwest  Level Estimated
Tue 09:07:00 PM 37.6115 47.7840 330° Northwest  Level Estimated
Tue 09:08:00 PM 37.7225 47.7040 330° Northwest  Level Estimated
Tue 09:09:00 PM 37.8335 47.6238 330° Northwest  Level Estimated
Tue 09:10:00 PM 37.9443 47.5434 330° Northwest  Level Estimated
Tue 09:11:00 PM 38.0551 47.4627 330° Northwest  Level Estimated
Tue 09:12:00 PM 38.1659 47.3818 330° Northwest  Level Estimated
Tue 09:13:00 PM 38.2766 47.3006 330° Northwest  Level Estimated
Tue 09:14:00 PM 38.3872 47.2192 330° Northwest  Level Estimated
Tue 09:15:00 PM 38.4978 47.1376 330° Northwest  Level Estimated
Tue 09:16:00 PM 38.6084 47.0556 330° Northwest  Level Estimated
Tue 09:17:00 PM 38.7189 46.9735 330° Northwest  Level Estimated
Tue 09:18:00 PM 38.8293 46.8910 330° Northwest  Level Estimated
Tue 09:19:00 PM 38.9396 46.8084 330° Northwest  Level Estimated
Tue 09:20:00 PM 39.0499 46.7254 330° Northwest  Level Estimated
Tue 09:21:00 PM 39.1602 46.6422 330° Northwest  Level Estimated
Tue 09:22:00 PM 39.2704 46.5588 330° Northwest  Level Estimated
Tue 09:23:00 PM 39.3805 46.4751 330° Northwest  Level Estimated
Tue 09:24:00 PM 39.4906 46.3911 330° Northwest  Level Estimated
Tue 09:25:00 PM 39.6006 46.3068 329° Northwest  Level Estimated
Tue 09:26:00 PM 39.7105 46.2223 329° Northwest  Level Estimated
Tue 09:27:00 PM 39.8204 46.1375 329° Northwest  Level Estimated
Tue 09:28:00 PM 39.9302 46.0524 329° Northwest  Level Estimated
Tue 09:29:00 PM 40.0400 45.9671 329° Northwest  Level Estimated
Tue 09:30:00 PM 40.1497 45.8815 329° Northwest  Level Estimated
Tue 09:31:00 PM 40.2593 45.7956 329° Northwest  Level Estimated
Tue 09:32:00 PM 40.3689 45.7095 329° Northwest  Level Estimated
Tue 09:33:00 PM 40.4784 45.6230 329° Northwest  Level Estimated
Tue 09:34:00 PM 40.5878 45.5363 329° Northwest  Level Estimated
Tue 09:35:00 PM 40.6972 45.4493 329° Northwest  Level Estimated
Tue 09:36:00 PM 40.8065 45.3620 329° Northwest  Level Estimated
Tue 09:37:00 PM 40.9157 45.2744 329° Northwest  Level Estimated
Tue 09:38:00 PM 41.0249 45.1865 329° Northwest  Level Estimated
Tue 09:39:00 PM 41.1340 45.0983 329° Northwest  Level Estimated
Tue 09:40:00 PM 41.2431 45.0099 329° Northwest  Level Estimated
Tue 09:41:00 PM 41.3521 44.9211 329° Northwest  Level Estimated
Tue 09:42:00 PM 41.4610 44.8321 329° Northwest  Level Estimated
Tue 09:43:00 PM 41.5698 44.7427 328° Northwest  Level Estimated
Tue 09:44:00 PM 41.6786 44.6531 328° Northwest  Level Estimated
Tue 09:45:00 PM 41.7873 44.5631 328° Northwest  Level Estimated
Tue 09:46:00 PM 41.8959 44.4729 328° Northwest  Level Estimated
Tue 09:47:00 PM 42.0045 44.3823 328° Northwest  Level Estimated
Tue 09:48:00 PM 42.1129 44.2914 328° Northwest  Level Estimated
Tue 09:49:00 PM 42.2214 44.2002 328° Northwest  Level Estimated
Tue 09:50:00 PM 42.3297 44.1087 328° Northwest  Level Estimated
Tue 09:51:00 PM 42.4380 44.0169 328° Northwest  Level Estimated
Tue 09:52:00 PM 42.5462 43.9247 328° Northwest  Level Estimated
Tue 09:53:00 PM 42.6543 43.8323 328° Northwest  Level Estimated
Tue 09:54:00 PM 42.7623 43.7395 328° Northwest  Level Estimated
Tue 09:55:00 PM 42.8703 43.6464 328° Northwest  Level Estimated
Tue 09:56:00 PM 42.9782 43.5530 328° Northwest  Level Estimated
Tue 09:57:00 PM 43.0860 43.4592 328° Northwest  Level Estimated
Tue 09:58:00 PM 43.1937 43.3651 328° Northwest  Level Estimated
Tue 09:59:00 PM 43.3014 43.2707 327° Northwest  Level Estimated
Tue 10:00:00 PM 43.4090 43.1759 327° Northwest  Level Estimated
Tue 10:01:00 PM 43.5165 43.0808 327° Northwest  Level Estimated
Tue 10:02:00 PM 43.6239 42.9854 327° Northwest  Level Estimated
Tue 10:03:00 PM 43.7313 42.8896 327° Northwest  Level Estimated
Tue 10:04:00 PM 43.8386 42.7935 327° Northwest  Level Estimated
Tue 10:05:00 PM 43.9457 42.6970 327° Northwest  Level Estimated
Tue 10:06:00 PM 44.0528 42.6002 327° Northwest  Level Estimated
Tue 10:07:00 PM 44.1599 42.5031 327° Northwest  Level Estimated
Tue 10:08:00 PM 44.2668 42.4055 327° Northwest  Level Estimated
Tue 10:09:00 PM 44.3737 42.3077 327° Northwest  Level Estimated
Tue 10:10:00 PM 44.4804 42.2094 327° Northwest  Level Estimated
Tue 10:11:00 PM 44.5871 42.1109 327° Northwest  Level Estimated
Tue 10:12:00 PM 44.6937 42.0119 327° Northwest  Level Estimated
Tue 10:13:00 PM 44.8003 41.9126 327° Northwest  Level Estimated
Tue 10:14:00 PM 44.9067 41.8129 326° Northwest  Level Estimated
Tue 10:15:00 PM 45.0130 41.7128 326° Northwest  Level Estimated
Tue 10:16:00 PM 45.1193 41.6124 326° Northwest  Level Estimated
Tue 10:17:00 PM 45.2255 41.5116 326° Northwest  Level Estimated
Tue 10:18:00 PM 45.3315 41.4104 326° Northwest  Level Estimated
Tue 10:19:00 PM 45.4375 41.3089 326° Northwest  Level Estimated
Tue 10:20:00 PM 45.5434 41.2069 326° Northwest  Level Estimated
Tue 10:21:00 PM 45.6492 41.1046 326° Northwest  Level Estimated
Tue 10:22:00 PM 45.7550 41.0019 326° Northwest  Level Estimated
Tue 10:23:00 PM 45.8606 40.8988 326° Northwest  Level Estimated
Tue 10:24:00 PM 45.9661 40.7953 326° Northwest  Level Estimated
Tue 10:25:00 PM 46.0716 40.6914 326° Northwest  Level Estimated
Tue 10:26:00 PM 46.1769 40.5871 326° Northwest  Level Estimated
Tue 10:27:00 PM 46.2822 40.4824 326° Northwest  Level Estimated
Tue 10:28:00 PM 46.3873 40.3774 325° Northwest  Level Estimated
Tue 10:29:00 PM 46.4924 40.2719 325° Northwest  Level Estimated
Tue 10:30:00 PM 46.5973 40.1660 325° Northwest  Level Estimated
Tue 10:31:00 PM 46.7022 40.0597 325° Northwest  Level Estimated
Tue 10:32:00 PM 46.8069 39.9529 325° Northwest  Level Estimated
Tue 10:33:00 PM 46.9116 39.8458 325° Northwest  Level Estimated
Tue 10:34:00 PM 47.0162 39.7382 325° Northwest  Level Estimated
Tue 10:35:00 PM 47.1206 39.6302 325° Northwest  Level Estimated
Tue 10:36:00 PM 47.2250 39.5218 325° Northwest  Level Estimated
Tue 10:37:00 PM 47.3292 39.4130 325° Northwest  Level Estimated
Tue 10:38:00 PM 47.4334 39.3037 325° Northwest  Level Estimated
Tue 10:39:00 PM 47.5374 39.1940 325° Northwest  Level Estimated
Tue 10:40:00 PM 47.6414 39.0839 324° Northwest  Level Estimated
Tue 10:41:00 PM 47.7452 38.9733 324° Northwest  Level Estimated
Tue 10:42:00 PM 47.8489 38.8623 324° Northwest  Level Estimated
Tue 10:43:00 PM 47.9526 38.7508 324° Northwest  Level Estimated
Tue 10:44:00 PM 48.0561 38.6389 324° Northwest  Level Estimated
Tue 10:45:00 PM 48.1595 38.5266 324° Northwest  Level Estimated
Tue 10:46:00 PM 48.2628 38.4137 324° Northwest  Level Estimated
Tue 10:47:00 PM 48.3660 38.3005 324° Northwest  Level Estimated
Tue 10:48:00 PM 48.4691 38.1867 324° Northwest  Level Estimated
Tue 10:49:00 PM 48.5720 38.0726 324° Northwest  Level Estimated
Tue 10:50:00 PM 48.6749 37.9579 324° Northwest  Level Estimated
Tue 10:51:00 PM 48.7776 37.8428 324° Northwest  Level Estimated
Tue 10:52:00 PM 48.8802 37.7272 323° Northwest  Level Estimated
Tue 10:53:00 PM 48.9827 37.6111 323° Northwest  Level Estimated
Tue 10:54:00 PM 49.0851 37.4945 323° Northwest  Level Estimated
Tue 10:55:00 PM 49.1874 37.3775 323° Northwest  Level Estimated
Tue 10:56:00 PM 49.2895 37.2600 323° Northwest  Level Estimated
Tue 10:57:00 PM 49.3916 37.1420 323° Northwest  Level Estimated
Tue 10:58:00 PM 49.4935 37.0235 323° Northwest  Level Estimated
Tue 10:59:00 PM 49.5953 36.9045 323° Northwest  Level Estimated
Tue 11:00:00 PM 49.6969 36.7850 323° Northwest  Level Estimated
Tue 11:01:00 PM 49.7985 36.6650 323° Northwest  Level Estimated
Tue 11:02:00 PM 49.8999 36.5445 323° Northwest  Level Estimated
Tue 11:03:00 PM 50.0012 36.4235 322° Northwest  Level Estimated
Tue 11:04:00 PM 50.1023 36.3020 322° Northwest  Level Estimated
Tue 11:05:00 PM 50.2034 36.1800 322° Northwest  Level Estimated
Tue 11:06:00 PM 50.3043 36.0574 322° Northwest  Level Estimated
Tue 11:07:00 PM 50.4051 35.9344 322° Northwest  Level Estimated
Tue 11:08:00 PM 50.5057 35.8108 322° Northwest  Level Estimated
Tue 11:09:00 PM 50.6063 35.6867 322° Northwest  Level Estimated
Tue 11:10:00 PM 50.7066 35.5620 322° Northwest  Level Estimated
Tue 11:11:00 PM 50.8069 35.4368 322° Northwest  Level Estimated
Tue 11:12:00 PM 50.9070 35.3111 322° Northwest  Level Estimated
Tue 11:13:00 PM 51.0070 35.1849 322° Northwest  Level Estimated
Tue 11:14:00 PM 51.1068 35.0580 321° Northwest  Level Estimated
Tue 11:15:00 PM 51.2066 34.9307 321° Northwest  Level Estimated
Tue 11:16:00 PM 51.3061 34.8028 321° Northwest  Level Estimated
Tue 11:17:00 PM 51.4055 34.6743 321° Northwest  Level Estimated
Tue 11:18:00 PM 51.5048 34.5453 321° Northwest  Level Estimated
Tue 11:19:00 PM 51.6040 34.4157 321° Northwest  Level Estimated
Tue 11:20:00 PM 51.7030 34.2856 321° Northwest  Level Estimated
Tue 11:21:00 PM 51.8018 34.1549 321° Northwest  Level Estimated
Tue 11:22:00 PM 51.9006 34.0235 321° Northwest  Level Estimated
Tue 11:23:00 PM 51.9991 33.8917 321° Northwest  Level Estimated
Tue 11:24:00 PM 52.0975 33.7592 320° Northwest  Level Estimated
Tue 11:25:00 PM 52.1958 33.6262 320° Northwest  Level Estimated
Tue 11:26:00 PM 52.2939 33.4925 320° Northwest  Level Estimated
Tue 11:27:00 PM 52.3919 33.3583 320° Northwest  Level Estimated
Tue 11:28:00 PM 52.4897 33.2235 320° Northwest  Level Estimated
Tue 11:29:00 PM 52.5874 33.0881 320° Northwest  Level Estimated
Tue 11:30:00 PM 52.6849 32.9521 320° Northwest  Level Estimated
Tue 11:31:00 PM 52.7822 32.8154 320° Northwest  Level Estimated
Tue 11:32:00 PM 52.8794 32.6782 320° Northwest  Level Estimated
Tue 11:33:00 PM 52.9765 32.5403 319° Northwest  Level Estimated
Tue 11:34:00 PM 53.0733 32.4019 319° Northwest  Level Estimated
Tue 11:35:00 PM 53.1700 32.2627 319° Northwest  Level Estimated
Tue 11:36:00 PM 53.2666 32.1230 319° Northwest  Level Estimated
Tue 11:37:00 PM 53.3630 31.9826 319° Northwest  Level Estimated
Tue 11:38:00 PM 53.4592 31.8416 319° Northwest  Level Estimated
Tue 11:39:00 PM 53.5552 31.7000 319° Northwest  Level Estimated
Tue 11:40:00 PM 53.6511 31.5577 319° Northwest  Level Estimated
Tue 11:41:00 PM 53.7468 31.4148 319° Northwest  Level Estimated
Tue 11:42:00 PM 53.8424 31.2712 318° Northwest  Level Estimated
Tue 11:43:00 PM 53.9377 31.1269 318° Northwest  Level Estimated
Tue 11:44:00 PM 54.0329 30.9820 318° Northwest  Level Estimated
Tue 11:45:00 PM 54.1280 30.8365 318° Northwest  Level Estimated
Tue 11:46:00 PM 54.2228 30.6903 318° Northwest  Level Estimated
Tue 11:47:00 PM 54.3175 30.5433 318° Northwest  Level Estimated
Tue 11:48:00 PM 54.4120 30.3958 318° Northwest  Level Estimated
Tue 11:49:00 PM 54.5063 30.2475 318° Northwest  Level Estimated
Tue 11:50:00 PM 54.6004 30.0985 318° Northwest  Level Estimated
Tue 11:51:00 PM 54.6944 29.9489 317° Northwest  Level Estimated
Tue 11:52:00 PM 54.7881 29.7986 317° Northwest  Level Estimated
Tue 11:53:00 PM 54.8817 29.6475 317° Northwest  Level Estimated
Tue 11:54:00 PM 54.9751 29.4958 317° Northwest  Level Estimated
Tue 11:55:00 PM 55.0682 29.3434 317° Northwest  Level Estimated
Tue 11:56:00 PM 55.1613 29.1902 317° Northwest  Level Estimated
Tue 11:57:00 PM 55.2541 29.0364 317° Northwest  Level Estimated
Tue 11:58:00 PM 55.3467 28.8818 317° Northwest  Level Estimated
Tue 11:59:00 PM 55.4391 28.7264 316° Northwest  Level Estimated
Wed 12:00:00 AM 55.5313 28.5704 316° Northwest  Level Estimated
Wed 12:01:00 AM 55.6233 28.4136 316° Northwest  Level Estimated
Wed 12:02:00 AM 55.7151 28.2561 316° Northwest  Level Estimated
Wed 12:03:00 AM 55.8068 28.0979 316° Northwest  Level Estimated
Wed 12:04:00 AM 55.8982 27.9389 316° Northwest  Level Estimated
Wed 12:05:00 AM 55.9894 27.7791 316° Northwest  Level Estimated
Wed 12:06:00 AM 56.0804 27.6186 315° West  Level Estimated
Wed 12:07:00 AM 56.1712 27.4574 315° West  Level Estimated
Wed 12:08:00 AM 56.2618 27.2953 315° West  Level Estimated
Wed 12:09:00 AM 56.3521 27.1326 315° West  Level Estimated
Wed 12:10:00 AM 56.4423 26.9690 315° West  Level Estimated
Wed 12:11:00 AM 56.5322 26.8047 315° West  Level Estimated
Wed 12:12:00 AM 56.6219 26.6395 315° West  Level Estimated
Wed 12:13:00 AM 56.7114 26.4736 315° West  Level Estimated
Wed 12:14:00 AM 56.8007 26.3069 314° West  Level Estimated
Wed 12:15:00 AM 56.8898 26.1394 314° West  Level Estimated
Wed 12:16:00 AM 56.9786 25.9711 314° West  Level Estimated
Wed 12:17:00 AM 57.0672 25.8020 314° West  Level Estimated
Wed 12:18:00 AM 57.1556 25.6322 314° West  Level Estimated
Wed 12:19:00 AM 57.2437 25.4614 314° West  Level Estimated
Wed 12:20:00 AM 57.3316 25.2899 314° West  Level Estimated
Wed 12:21:00 AM 57.4193 25.1175 313° West  Level Estimated
Wed 12:22:00 AM 57.5067 24.9444 313° West  Level Estimated
Wed 12:23:00 AM 57.5939 24.7703 313° West  Level Estimated
Wed 12:24:00 AM 57.6809 24.5955 313° West  Level Estimated
Wed 12:25:00 AM 57.7676 24.4198 313° West  Level Estimated
Wed 12:26:00 AM 57.8541 24.2433 313° West  Level Estimated
Wed 12:27:00 AM 57.9403 24.0659 313° West  Level Estimated
Wed 12:28:00 AM 58.0263 23.8877 312° West  Level Estimated
Wed 12:29:00 AM 58.1120 23.7086 312° West  Level Estimated
Wed 12:30:00 AM 58.1975 23.5286 312° West  Level Estimated
Wed 12:31:00 AM 58.2827 23.3478 312° West  Level Estimated
Wed 12:32:00 AM 58.3677 23.1661 312° West  Level Estimated
Wed 12:33:00 AM 58.4524 22.9835 312° West  Level Estimated
Wed 12:34:00 AM 58.5369 22.8001 311° West  Level Estimated
Wed 12:35:00 AM 58.6211 22.6157 311° West  Level Estimated
Wed 12:36:00 AM 58.7050 22.4305 311° West  Level Estimated
Wed 12:37:00 AM 58.7886 22.2444 311° West  Level Estimated
Wed 12:38:00 AM 58.8720 22.0574 311° West  Level Estimated
Wed 12:39:00 AM 58.9551 21.8695 311° West  Level Estimated
Wed 12:40:00 AM 59.0380 21.6807 311° West  Level Estimated
Wed 12:41:00 AM 59.1205 21.4909 310° West  Level Estimated
Wed 12:42:00 AM 59.2028 21.3003 310° West  Level Estimated
Wed 12:43:00 AM 59.2848 21.1087 310° West  Level Estimated
Wed 12:44:00 AM 59.3666 20.9162 310° West  Level Estimated
Wed 12:45:00 AM 59.4480 20.7228 310° West  Level Estimated
Wed 12:46:00 AM 59.5291 20.5285 310° West  Level Estimated
Wed 12:47:00 AM 59.6100 20.3332 309° West  Level Estimated
Wed 12:48:00 AM 59.6906 20.1369 309° West  Level Estimated
Wed 12:49:00 AM 59.7708 19.9398 309° West  Level Estimated
Wed 12:50:00 AM 59.8508 19.7416 309° West  Level Estimated
Wed 12:51:00 AM 59.9305 19.5426 309° West  Level Estimated
Wed 12:52:00 AM 60.0099 19.3425 308° West  Level Estimated
Wed 12:53:00 AM 60.0890 19.1416 308° West  Level Estimated
Wed 12:54:00 AM 60.1677 18.9396 308° West  Level Estimated
Wed 12:55:00 AM 60.2462 18.7367 308° West  Level Estimated
Wed 12:56:00 AM 60.3243 18.5328 308° West  Level Estimated
Wed 12:57:00 AM 60.4022 18.3279 308° West  Level Estimated
Wed 12:58:00 AM 60.4797 18.1220 307° West  Level Estimated
Wed 12:59:00 AM 60.5569 17.9152 307° West  Level Estimated
Wed 01:00:00 AM 60.6338 17.7074 307° West  Level Estimated
Wed 01:01:00 AM 60.7103 17.4986 307° West  Level Estimated
Wed 01:02:00 AM 60.7865 17.2887 307° West  Level Estimated
Wed 01:03:00 AM 60.8624 17.0779 307° West  Level Estimated
Wed 01:04:00 AM 60.9380 16.8661 306° West  Level Estimated
Wed 01:05:00 AM 61.0132 16.6533 306° West  Level Estimated
Wed 01:06:00 AM 61.0882 16.4395 306° West  Level Estimated
Wed 01:07:00 AM 61.1627 16.2246 306° West  Level Estimated
Wed 01:08:00 AM 61.2369 16.0088 306° West  Level Estimated
Wed 01:09:00 AM 61.3108 15.7919 305° West  Level Estimated
Wed 01:10:00 AM 61.3843 15.5740 305° West  Level Estimated
Wed 01:11:00 AM 61.4575 15.3551 305° West  Level Estimated
Wed 01:12:00 AM 61.5303 15.1351 305° West  Level Estimated
Wed 01:13:00 AM 61.6028 14.9142 305° West  Level Estimated
Wed 01:14:00 AM 61.6749 14.6922 304° West  Level Estimated
Wed 01:15:00 AM 61.7466 14.4691 304° West  Level Estimated
Wed 01:16:00 AM 61.8180 14.2450 304° West  Level Estimated
Wed 01:17:00 AM 61.8890 14.0199 304° West  Level Estimated
Wed 01:18:00 AM 61.9597 13.7937 304° West  Level Estimated
Wed 01:19:00 AM 62.0300 13.5665 303° West  Level Estimated
Wed 01:20:00 AM 62.0999 13.3382 303° West  Level Estimated
Wed 01:21:00 AM 62.1694 13.1089 303° West  Level Estimated
Wed 01:22:00 AM 62.2385 12.8785 303° West  Level Estimated
Wed 01:23:00 AM 62.3073 12.6471 303° West  Level Estimated
Wed 01:24:00 AM 62.3757 12.4146 302° West  Level Estimated
Wed 01:25:00 AM 62.4436 12.1810 302° West  Level Estimated
Wed 01:26:00 AM 62.5112 11.9464 302° West  Level Estimated
Wed 01:27:00 AM 62.5784 11.7108 302° West  Level Estimated
Wed 01:28:00 AM 62.6452 11.4740 302° West  Level Estimated
Wed 01:29:00 AM 62.7116 11.2362 301° West  Level Estimated
Wed 01:30:00 AM 62.7776 10.9973 301° West  Level Estimated
Wed 01:31:00 AM 62.8432 10.7574 301° West  Level Estimated
Wed 01:32:00 AM 62.9084 10.5164 301° West  Level Estimated
Wed 01:33:00 AM 62.9731 10.2743 301° West  Level Estimated
Wed 01:34:00 AM 63.0375 10.0312 300° West  Level Estimated
Wed 01:35:00 AM 63.1014 9.7869 300° West  Level Estimated
Wed 01:36:00 AM 63.1649 9.5416 300° West  Level Estimated
Wed 01:37:00 AM 63.2280 9.2953 300° West  Level Estimated
Wed 01:38:00 AM 63.2907 9.0478 299° West  Level Estimated
Wed 01:39:00 AM 63.3529 8.7993 299° West  Level Estimated
Wed 01:40:00 AM 63.4147 8.5497 299° West  Level Estimated
Wed 01:41:00 AM 63.4760 8.2990 299° West  Level Estimated
Wed 01:42:00 AM 63.5369 8.0473 299° West  Level Estimated
Wed 01:43:00 AM 63.5974 7.7945 298° West  Level Estimated
Wed 01:44:00 AM 63.6574 7.5406 298° West  Level Estimated
Wed 01:45:00 AM 63.7170 7.2856 298° West  Level Estimated
Wed 01:46:00 AM 63.7761 7.0296 298° West  Level Estimated
Wed 01:47:00 AM 63.8348 6.7725 297° West  Level Estimated
Wed 01:48:00 AM 63.8930 6.5143 297° West  Level Estimated
Wed 01:49:00 AM 63.9507 6.2550 297° West  Level Estimated
Wed 01:50:00 AM 64.0080 5.9947 297° West  Level Estimated
Wed 01:51:00 AM 64.0648 5.7333 297° West  Level Estimated
Wed 01:52:00 AM 64.1211 5.4709 296° West  Level Estimated
Wed 01:53:00 AM 64.1770 5.2074 296° West  Level Estimated
Wed 01:54:00 AM 64.2324 4.9429 296° West  Level Estimated
Wed 01:55:00 AM 64.2873 4.6772 296° West  Level Estimated
Wed 01:56:00 AM 64.3418 4.4106 295° West  Level Estimated
Wed 01:57:00 AM 64.3957 4.1428 295° West  Level Estimated
Wed 01:58:00 AM 64.4491 3.8741 295° West  Level Estimated
Wed 01:59:00 AM 64.5021 3.6042 295° West  Level Estimated
Wed 02:00:00 AM 64.5546 3.3334 294° West  Level Estimated
Wed 02:01:00 AM 64.6065 3.0615 294° West  Level Estimated
Wed 02:02:00 AM 64.6580 2.7885 294° West  Level Estimated
Wed 02:03:00 AM 64.7089 2.5146 294° West  Level Estimated
Wed 02:04:00 AM 64.7594 2.2396 293° West  Level Estimated
Wed 02:05:00 AM 64.8093 1.9636 293° West  Level Estimated
Wed 02:06:00 AM 64.8587 1.6865 293° West  Level Estimated
Wed 02:07:00 AM 64.9077 1.4085 293° West  Level Estimated
Wed 02:08:00 AM 64.9560 1.1294 292° West  Level Estimated
Wed 02:09:00 AM 65.0039 0.8493 292° West  Level Estimated
Wed 02:10:00 AM 65.0512 0.5683 292° West  Level Estimated
Wed 02:11:00 AM 65.0981 0.2862 292° West  Level Estimated
Wed 02:12:00 AM 65.1443 0.0031 291° West  Level Estimated
Wed 02:13:00 AM 65.1901 -0.2809 291° West  Level Estimated
Wed 02:14:00 AM 65.2353 -0.5659 291° West  Level Estimated
Wed 02:15:00 AM 65.2799 -0.8519 291° West  Level Estimated
Wed 02:16:00 AM 65.3241 -1.1389 290° West  Level Estimated
Wed 02:17:00 AM 65.3676 -1.4268 290° West  Level Estimated
Wed 02:18:00 AM 65.4107 -1.7156 290° West  Level Estimated
Wed 02:19:00 AM 65.4531 -2.0055 290° West  Level Estimated
Wed 02:20:00 AM 65.4950 -2.2962 289° West  Level Estimated
Wed 02:21:00 AM 65.5364 -2.5879 289° West  Level Estimated
Wed 02:22:00 AM 65.5772 -2.8805 289° West  Level Estimated
Wed 02:23:00 AM 65.6174 -3.1739 288° West  Level Estimated
Wed 02:24:00 AM 65.6571 -3.4683 288° West  Level Estimated
Wed 02:25:00 AM 65.6962 -3.7636 288° West  Level Estimated
Wed 02:26:00 AM 65.7347 -4.0598 288° West  Level Estimated
Wed 02:27:00 AM 65.7726 -4.3569 287° West  Level Estimated
Wed 02:28:00 AM 65.8100 -4.6548 287° West  Level Estimated
Wed 02:29:00 AM 65.8467 -4.9536 287° West  Level Estimated
Wed 02:30:00 AM 65.8829 -5.2533 287° West  Level Estimated
Wed 02:31:00 AM 65.9186 -5.5537 286° West  Level Estimated
Wed 02:32:00 AM 65.9536 -5.8551 286° West  Level Estimated
Wed 02:33:00 AM 65.9880 -6.1572 286° West  Level Estimated
Wed 02:34:00 AM 66.0219 -6.4601 285° West  Level Estimated
Wed 02:35:00 AM 66.0551 -6.7639 285° West  Level Estimated
Wed 02:36:00 AM 66.0878 -7.0684 285° West  Level Estimated
Wed 02:37:00 AM 66.1198 -7.3737 285° West  Level Estimated
Wed 02:38:00 AM 66.1512 -7.6798 284° West  Level Estimated
Wed 02:39:00 AM 66.1821 -7.9866 284° West  Level Estimated
Wed 02:40:00 AM 66.2123 -8.2941 284° West  Level Estimated
Wed 02:41:00 AM 66.2419 -8.6024 284° West  Level Estimated
Wed 02:42:00 AM 66.2709 -8.9114 283° West  Level Estimated
Wed 02:43:00 AM 66.2993 -9.2212 283° West  Level Estimated
Wed 02:44:00 AM 66.3271 -9.5316 283° West  Level Estimated
Wed 02:45:00 AM 66.3542 -9.8427 282° West  Level Estimated
Wed 02:46:00 AM 66.3808 -10.1544 282° West  Level Estimated
Wed 02:47:00 AM 66.4066 -10.4668 282° West  Level Estimated
Wed 02:48:00 AM 66.4319 -10.7799 282° West  Level Estimated
Wed 02:49:00 AM 66.4566 -11.0935 281° West  Level Estimated
Wed 02:50:00 AM 66.4806 -11.4078 281° West  Level Estimated
Wed 02:51:00 AM 66.5040 -11.7227 281° West  Level Estimated
Wed 02:52:00 AM 66.5267 -12.0382 280° West  Level Estimated
Wed 02:53:00 AM 66.5489 -12.3542 280° West  Level Estimated
Wed 02:54:00 AM 66.5703 -12.6708 280° West  Level Estimated
Wed 02:55:00 AM 66.5912 -12.9879 280° West  Level Estimated
Wed 02:56:00 AM 66.6114 -13.3056 279° West  Level Estimated
Wed 02:57:00 AM 66.6309 -13.6238 279° West  Level Estimated
Wed 02:58:00 AM 66.6498 -13.9424 279° West  Level Estimated
Wed 02:59:00 AM 66.6681 -14.2616 278° West  Level Estimated
Wed 03:00:00 AM 66.6857 -14.5812 278° West  Level Estimated
Wed 03:01:00 AM 66.7027 -14.9012 278° West  Level Estimated
Wed 03:02:00 AM 66.7190 -15.2217 277° West  Level Estimated
Wed 03:03:00 AM 66.7347 -15.5426 277° West  Level Estimated
Wed 03:04:00 AM 66.7497 -15.8639 277° West  Level Estimated
Wed 03:05:00 AM 66.7641 -16.1856 277° West  Level Estimated
Wed 03:06:00 AM 66.7778 -16.5076 276° West  Level Estimated
Wed 03:07:00 AM 66.7908 -16.8300 276° West  Level Estimated
Wed 03:08:00 AM 66.8032 -17.1528 276° West  Level Estimated
Wed 03:09:00 AM 66.8150 -17.4758 275° West  Level Estimated
Wed 03:10:00 AM 66.8260 -17.7992 275° West  Level Estimated
Wed 03:11:00 AM 66.8364 -18.1228 275° West  Level Estimated
Wed 03:12:00 AM 66.8462 -18.4467 275° West  Level Estimated
Wed 03:13:00 AM 66.8553 -18.7709 274° West  Level Estimated
Wed 03:14:00 AM 66.8637 -19.0953 274° West  Level Estimated
Wed 03:15:00 AM 66.8715 -19.4199 274° West  Level Estimated
Wed 03:16:00 AM 66.8786 -19.7447 273° West  Level Estimated
Wed 03:17:00 AM 66.8850 -20.0696 273° West  Level Estimated
Wed 03:18:00 AM 66.8907 -20.3948 273° West  Level Estimated
Wed 03:19:00 AM 66.8959 -20.7201 272° West  Level Estimated
Wed 03:20:00 AM 66.9003 -21.0455 272° West  Level Estimated
Wed 03:21:00 AM 66.9040 -21.3710 272° West  Level Estimated
Wed 03:22:00 AM 66.9071 -21.6966 272° West  Level Estimated
Wed 03:23:00 AM 66.9096 -22.0223 271° West  Level Estimated
Wed 03:24:00 AM 66.9113 -22.3480 271° West  Level Estimated
Wed 03:25:00 AM 66.9124 -22.6738 271° West  Level Estimated
Wed 03:26:00 AM 66.9128 -22.9996 270° West  Level Estimated
Wed 03:27:00 AM 66.9126 -23.3254 270° West  Level Estimated
Wed 03:28:00 AM 66.9117 -23.6512 270° West  Level Estimated
Wed 03:29:00 AM 66.9101 -23.9769 269° West  Level Estimated
Wed 03:30:00 AM 66.9079 -24.3026 269° West  Level Estimated
Wed 03:31:00 AM 66.9049 -24.6283 269° West  Level Estimated
Wed 03:32:00 AM 66.9014 -24.9538 269° West  Level Estimated
Wed 03:33:00 AM 66.8971 -25.2792 268° West  Level Estimated
Wed 03:34:00 AM 66.8922 -25.6046 268° West  Level Estimated
Wed 03:35:00 AM 66.8866 -25.9298 268° West  Level Estimated
Wed 03:36:00 AM 66.8804 -26.2548 267° West  Level Estimated
Wed 03:37:00 AM 66.8734 -26.5796 267° West  Level Estimated
Wed 03:38:00 AM 66.8659 -26.9043 267° West  Level Estimated
Wed 03:39:00 AM 66.8576 -27.2287 266° West  Level Estimated
Wed 03:40:00 AM 66.8487 -27.5529 266° West  Level Estimated
Wed 03:41:00 AM 66.8391 -27.8769 266° West  Level Estimated
Wed 03:42:00 AM 66.8289 -28.2006 266° West  Level Estimated
Wed 03:43:00 AM 66.8180 -28.5240 265° West  Level Estimated
Wed 03:44:00 AM 66.8065 -28.8472 265° West  Level Estimated
Wed 03:45:00 AM 66.7943 -29.1700 265° West  Level Estimated
Wed 03:46:00 AM 66.7814 -29.4925 264° West  Level Estimated
Wed 03:47:00 AM 66.7679 -29.8146 264° West  Level Estimated
Wed 03:48:00 AM 66.7537 -30.1364 264° West  Level Estimated
Wed 03:49:00 AM 66.7388 -30.4578 263° West  Level Estimated
Wed 03:50:00 AM 66.7234 -30.7789 263° West  Level Estimated
Wed 03:51:00 AM 66.7072 -31.0994 263° West  Level Estimated
Wed 03:52:00 AM 66.6904 -31.4196 263° West  Level Estimated
Wed 03:53:00 AM 66.6730 -31.7393 262° West  Level Estimated
Wed 03:54:00 AM 66.6549 -32.0586 262° West  Level Estimated
Wed 03:55:00 AM 66.6361 -32.3774 262° West  Level Estimated
Wed 03:56:00 AM 66.6168 -32.6957 261° West  Level Estimated
Wed 03:57:00 AM 66.5967 -33.0135 261° West  Level Estimated
Wed 03:58:00 AM 66.5761 -33.3308 261° West  Level Estimated
Wed 03:59:00 AM 66.5548 -33.6475 261° West  Level Estimated
Wed 04:00:00 AM 66.5328 -33.9637 260° West  Level Estimated
Wed 04:01:00 AM 66.5102 -34.2793 260° West  Level Estimated
Wed 04:02:00 AM 66.4870 -34.5944 260° West  Level Estimated
Wed 04:03:00 AM 66.4632 -34.9088 259° West  Level Estimated
Wed 04:04:00 AM 66.4387 -35.2227 259° West  Level Estimated
Wed 04:05:00 AM 66.4136 -35.5359 259° West  Level Estimated
Wed 04:06:00 AM 66.3878 -35.8485 259° West  Level Estimated
Wed 04:07:00 AM 66.3615 -36.1604 258° West  Level Estimated
Wed 04:08:00 AM 66.3345 -36.4717 258° West  Level Estimated
Wed 04:09:00 AM 66.3069 -36.7823 258° West  Level Estimated
Wed 04:10:00 AM 66.2787 -37.0922 257° West  Level Estimated
Wed 04:11:00 AM 66.2498 -37.4014 257° West  Level Estimated
Wed 04:12:00 AM 66.2204 -37.7099 257° West  Level Estimated
Wed 04:13:00 AM 66.1903 -38.0176 257° West  Level Estimated
Wed 04:14:00 AM 66.1597 -38.3246 256° West  Level Estimated
Wed 04:15:00 AM 66.1284 -38.6309 256° West  Level Estimated
Wed 04:16:00 AM 66.0965 -38.9364 256° West  Level Estimated
Wed 04:17:00 AM 66.0640 -39.2412 255° West  Level Estimated
Wed 04:18:00 AM 66.0309 -39.5451 255° West  Level Estimated
Wed 04:19:00 AM 65.9973 -39.8483 255° West  Level Estimated
Wed 04:20:00 AM 65.9630 -40.1507 255° West  Level Estimated
Wed 04:21:00 AM 65.9281 -40.4522 254° West  Level Estimated
Wed 04:22:00 AM 65.8927 -40.7529 254° West  Level Estimated
Wed 04:23:00 AM 65.8566 -41.0528 254° West  Level Estimated
Wed 04:24:00 AM 65.8200 -41.3518 253° West  Level Estimated
Wed 04:25:00 AM 65.7828 -41.6500 253° West  Level Estimated
Wed 04:26:00 AM 65.7450 -41.9473 253° West  Level Estimated
Wed 04:27:00 AM 65.7066 -42.2437 253° West  Level Estimated
Wed 04:28:00 AM 65.6677 -42.5392 252° West  Level Estimated
Wed 04:29:00 AM 65.6282 -42.8339 252° West  Level Estimated
Wed 04:30:00 AM 65.5881 -43.1276 252° West  Level Estimated
Wed 04:31:00 AM 65.5475 -43.4204 252° West  Level Estimated
Wed 04:32:00 AM 65.5063 -43.7124 251° West  Level Estimated
Wed 04:33:00 AM 65.4645 -44.0034 251° West  Level Estimated
Wed 04:34:00 AM 65.4222 -44.2934 251° West  Level Estimated
Wed 04:35:00 AM 65.3793 -44.5825 251° West  Level Estimated
Wed 04:36:00 AM 65.3359 -44.8707 250° West  Level Estimated
Wed 04:37:00 AM 65.2919 -45.1579 250° West  Level Estimated
Wed 04:38:00 AM 65.2474 -45.4442 250° West  Level Estimated
Wed 04:39:00 AM 65.2024 -45.7294 249° West  Level Estimated
Wed 04:40:00 AM 65.1568 -46.0137 249° West  Level Estimated
Wed 04:41:00 AM 65.1106 -46.2971 249° West  Level Estimated
Wed 04:42:00 AM 65.0640 -46.5794 249° West  Level Estimated
Wed 04:43:00 AM 65.0168 -46.8607 248° West  Level Estimated
Wed 04:44:00 AM 64.9691 -47.1411 248° West  Level Estimated
Wed 04:45:00 AM 64.9208 -47.4204 248° West  Level Estimated
Wed 04:46:00 AM 64.8720 -47.6987 248° West  Level Estimated
Wed 04:47:00 AM 64.8228 -47.9761 247° West  Level Estimated
Wed 04:48:00 AM 64.7730 -48.2524 247° West  Level Estimated
Wed 04:49:00 AM 64.7226 -48.5276 247° West  Level Estimated
Wed 04:50:00 AM 64.6718 -48.8019 247° West  Level Estimated
Wed 04:51:00 AM 64.6205 -49.0751 246° West  Level Estimated
Wed 04:52:00 AM 64.5687 -49.3473 246° West  Level Estimated
Wed 04:53:00 AM 64.5163 -49.6184 246° West  Level Estimated
Wed 04:54:00 AM 64.4635 -49.8885 246° West  Level Estimated
Wed 04:55:00 AM 64.4102 -50.1576 245° Southwest  Level Estimated
Wed 04:56:00 AM 64.3564 -50.4256 245° Southwest  Level Estimated
Wed 04:57:00 AM 64.3021 -50.6926 245° Southwest  Level Estimated
Wed 04:58:00 AM 64.2473 -50.9585 245° Southwest  Level Estimated
Wed 04:59:00 AM 64.1920 -51.2233 244° Southwest  Level Estimated
Wed 05:00:00 AM 64.1363 -51.4871 244° Southwest  Level Estimated
Wed 05:01:00 AM 64.0801 -51.7498 244° Southwest  Level Estimated
Wed 05:02:00 AM 64.0234 -52.0115 244° Southwest  Level Estimated
Wed 05:03:00 AM 63.9663 -52.2721 244° Southwest  Level Estimated
Wed 05:04:00 AM 63.9086 -52.5316 243° Southwest  Level Estimated
Wed 05:05:00 AM 63.8506 -52.7901 243° Southwest  Level Estimated
Wed 05:06:00 AM 63.7920 -53.0475 243° Southwest  Level Estimated
Wed 05:07:00 AM 63.7226 -53.3489 243° Southwest  Level Estimated
Wed 05:07:47 AM 65.7290 -55.2320 243° Southwest 439 505 36,000  Level FlightAware ADS-B
Wed 05:08:27 AM 65.6870 -55.3640 232° Southwest 439 505 36,000  Level FlightAware ADS-B
Wed 05:09:07 AM 65.6440 -55.4960 232° Southwest 439 505 36,000  Level FlightAware ADS-B
Wed 05:09:47 AM 65.6020 -55.6280 232° Southwest 439 505 36,000  Level FlightAware ADS-B
Wed 05:10:27 AM 65.5590 -55.7590 232° Southwest 439 505 36,000  Level FlightAware ADS-B
Wed 05:11:17 AM 65.5060 -55.9240 232° Southwest 439 505 36,000  Level FlightAware ADS-B
Wed 05:11:57 AM 65.4640 -56.0550 232° Southwest 439 505 36,000  Level FlightAware ADS-B
Wed 05:12:37 AM 65.4210 -56.1860 232° Southwest 439 505 36,000  Level FlightAware ADS-B
Wed 05:13:37 AM 65.2833 -56.5667 232° Southwest 440 506 36,000  Level Montreal Center
Wed 05:14:37 AM 65.2167 -56.7333 226° Southwest 440 506 36,000  Level Montreal Center
Wed 05:15:37 AM 65.1167 -57.0000 228° Southwest 440 506 36,000  Level Montreal Center
Wed 05:16:37 AM 65.0500 -57.2167 234° Southwest 430 495 36,000  Level Montreal Center
Wed 05:17:37 AM 64.9500 -57.4333 223° Southwest 440 506 36,000  Level Montreal Center
Wed 05:18:37 AM 64.8833 -57.6500 234° Southwest 440 506 36,000  Level Montreal Center
Wed 05:19:37 AM 64.8167 -57.8500 232° Southwest 440 506 36,000  Level Montreal Center
Wed 05:20:37 AM 64.7333 -58.0667 228° Southwest 440 506 36,000  Level Montreal Center
Wed 05:21:37 AM 64.6500 -58.3000 230° Southwest 440 506 36,000  Level Montreal Center
Wed 05:22:37 AM 64.5667 -58.5000 226° Southwest 440 506 36,000  Level Montreal Center
Wed 05:23:37 AM 64.4833 -58.7167 228° Southwest 430 495 36,000  Level Montreal Center
Wed 05:24:37 AM 64.4167 -58.9500 237° Southwest 440 506 36,000  Level Montreal Center
Wed 05:25:36 AM 64.3500 -59.2167 240° Southwest 440 506 36,000  Level Gander Center
Wed 05:26:36 AM 64.2667 -59.4167 226° Southwest 440 506 36,000  Level Gander Center
Wed 05:27:36 AM 64.1833 -59.6500 231° Southwest 440 506 36,000  Level Gander Center
Wed 05:28:37 AM 64.0833 -59.7833 210° Southwest 430 495 36,000  Level Montreal Center
Wed 05:29:37 AM 64.0333 -59.9667 238° Southwest 440 506 36,000  Level Montreal Center
Wed 05:30:37 AM 63.9667 -60.1667 233° Southwest 440 506 36,000  Level Montreal Center
Wed 05:31:37 AM 63.8667 -60.4500 231° Southwest 430 495 36,000  Level Montreal Center
Wed 05:32:37 AM 63.8167 -60.5833 230° Southwest 430 495 36,000  Level Montreal Center
Wed 05:33:37 AM 63.7500 -60.8167 237° Southwest 430 495 36,000  Level Montreal Center
Wed 05:34:37 AM 63.6833 -61.0500 237° Southwest 430 495 36,000  Level Montreal Center
Wed 05:35:37 AM 63.6167 -61.2333 231° Southwest 430 495 36,000  Level Montreal Center
Wed 05:36:37 AM 63.5333 -61.4667 231° Southwest 440 506 36,000  Level Montreal Center
Wed 05:37:37 AM 63.4667 -61.6833 236° Southwest 430 495 36,000  Level Montreal Center
Wed 05:38:37 AM 63.3833 -61.9167 232° Southwest 440 506 36,000  Level Montreal Center
Wed 05:39:37 AM 63.3167 -62.1333 236° Southwest 440 506 36,000  Level Montreal Center
Wed 05:40:37 AM 63.2333 -62.3333 227° Southwest 440 506 36,000  Level Montreal Center
Wed 05:41:37 AM 63.1667 -62.5833 240° Southwest 440 506 36,000  Level Montreal Center
Wed 05:42:37 AM 63.0833 -62.8167 232° Southwest 440 506 36,000  Level Montreal Center
Wed 05:43:37 AM 63.0167 -63.0333 236° Southwest 430 495 36,000  Level Montreal Center
Wed 05:44:37 AM 62.9500 -63.2500 236° Southwest 440 506 36,000  Level Montreal Center
Wed 05:45:37 AM 62.8833 -63.4500 234° Southwest 440 506 36,000  Level Montreal Center
Wed 05:46:37 AM 62.8167 -63.6667 236° Southwest 430 495 36,000  Level Montreal Center
Wed 05:47:37 AM 62.7333 -63.8833 230° Southwest 440 506 36,000  Level Montreal Center
Wed 05:48:37 AM 62.6833 -64.1333 247° West 430 495 36,000  Level Montreal Center
Wed 05:49:37 AM 62.6167 -64.3333 234° Southwest 430 495 36,000  Level Montreal Center
Wed 05:50:37 AM 62.5500 -64.5500 236° Southwest 430 495 36,000  Level Montreal Center
Wed 05:51:37 AM 62.4667 -64.7667 230° Southwest 440 506 36,000  Level Montreal Center
Wed 05:52:37 AM 62.4000 -65.0000 238° Southwest 440 506 36,000  Level Montreal Center
Wed 05:53:37 AM 62.3333 -65.2167 237° Southwest 440 506 36,000  Level Montreal Center
Wed 05:54:37 AM 62.2667 -65.4167 234° Southwest 440 506 36,000  Level Montreal Center
Wed 05:55:37 AM 62.1833 -65.6167 228° Southwest 430 495 36,000  Level Montreal Center
Wed 05:56:37 AM 62.1167 -65.8333 237° Southwest 430 495 36,000  Level Montreal Center
Wed 05:57:37 AM 62.0500 -66.0333 235° Southwest 440 506 36,000  Level Montreal Center
Wed 05:58:37 AM 61.9833 -66.2333 235° Southwest 430 495 36,000  Level Montreal Center
Wed 05:59:37 AM 61.9167 -66.4667 239° Southwest 440 506 36,000  Level Montreal Center
Wed 06:00:37 AM 61.8167 -66.6667 223° Southwest 440 506 36,000  Level Montreal Center
Wed 06:01:37 AM 61.7500 -66.9167 241° Southwest 440 506 36,000  Level Montreal Center
Wed 06:02:37 AM 61.6833 -67.0667 227° Southwest 440 506 36,000  Level Montreal Center
Wed 06:03:37 AM 61.6000 -67.2667 229° Southwest 440 506 36,000  Level Montreal Center
Wed 06:04:37 AM 61.5000 -67.4333 219° Southwest 440 506 36,000  Level Montreal Center
Wed 06:05:37 AM 61.4333 -67.6333 235° Southwest 440 506 36,000  Level Montreal Center
Wed 06:06:37 AM 61.3333 -67.8000 219° Southwest 440 506 36,000  Level Montreal Center
Wed 06:07:37 AM 61.2500 -68.0000 229° Southwest 440 506 36,000  Level Montreal Center
Wed 06:08:37 AM 61.1667 -68.1500 221° Southwest 440 506 36,000  Level Montreal Center
Wed 06:09:37 AM 61.0667 -68.3500 224° Southwest 440 506 36,000  Level Montreal Center
Wed 06:10:37 AM 60.9833 -68.5500 229° Southwest 450 518 36,000  Level Montreal Center
Wed 06:11:37 AM 60.9000 -68.7000 221° Southwest 450 518 36,000  Level Montreal Center
Wed 06:12:37 AM 60.8000 -68.9000 224° Southwest 450 518 36,000  Level Montreal Center
Wed 06:13:37 AM 60.7167 -69.0833 227° Southwest 440 506 36,000  Level Montreal Center
Wed 06:14:37 AM 60.6167 -69.2500 219° Southwest 450 518 36,000  Level Montreal Center
Wed 06:15:37 AM 60.5500 -69.4333 234° Southwest 440 506 36,000  Level Montreal Center
Wed 06:16:37 AM 60.4500 -69.5833 217° Southwest 440 506 36,000  Level Montreal Center
Wed 06:17:37 AM 60.3667 -69.7833 230° Southwest 450 518 36,000  Level Montreal Center
Wed 06:18:37 AM 60.2667 -69.9333 217° Southwest 440 506 36,000  Level Montreal Center
Wed 06:19:37 AM 60.2000 -70.1167 234° Southwest 440 506 36,000  Level Montreal Center
Wed 06:20:37 AM 60.1000 -70.3000 222° Southwest 450 518 36,000  Level Montreal Center
Wed 06:21:37 AM 60.0000 -70.4500 217° Southwest 450 518 36,000  Level Montreal Center
Wed 06:22:37 AM 59.9167 -70.6333 228° Southwest 450 518 36,000  Level Montreal Center
Wed 06:23:37 AM 59.8167 -70.8167 223° Southwest 450 518 36,000  Level Montreal Center
Wed 06:24:37 AM 59.7167 -70.9667 217° Southwest 450 518 36,000  Level Montreal Center
Wed 06:25:37 AM 59.6167 -71.1167 217° Southwest 450 518 36,000  Level Montreal Center
Wed 06:26:37 AM 59.5167 -71.2500 214° Southwest 450 518 36,000  Level Montreal Center
Wed 06:27:37 AM 59.4000 -71.4000 213° Southwest 450 518 36,000  Level Montreal Center
Wed 06:28:37 AM 59.3000 -71.5500 217° Southwest 460 529 36,000  Level Montreal Center
Wed 06:29:37 AM 59.2167 -71.7000 223° Southwest 460 529 36,000  Level Montreal Center
Wed 06:30:37 AM 59.1000 -71.8333 210° Southwest 450 518 36,000  Level Montreal Center
Wed 06:31:37 AM 59.0000 -71.9833 218° Southwest 460 529 36,000  Level Montreal Center
Wed 06:32:37 AM 58.8833 -72.1167 211° Southwest 460 529 36,000  Level Montreal Center
Wed 06:33:37 AM 58.7833 -72.2667 218° Southwest 460 529 36,000  Level Montreal Center
Wed 06:34:37 AM 58.6833 -72.4000 215° Southwest 460 529 36,000  Level Montreal Center
Wed 06:35:37 AM 58.5833 -72.5500 218° Southwest 460 529 36,000  Level Montreal Center
Wed 06:36:37 AM 58.4833 -72.7167 221° Southwest 460 529 36,000  Level Montreal Center
Wed 06:37:37 AM 58.3667 -72.8500 211° Southwest 460 529 36,000  Level Montreal Center
Wed 06:38:37 AM 58.2667 -72.9833 215° Southwest 460 529 36,000  Level Montreal Center
Wed 06:39:37 AM 58.1500 -73.1167 211° Southwest 460 529 36,000  Level Montreal Center
Wed 06:40:37 AM 58.0500 -73.2667 218° Southwest 460 529 36,000  Level Montreal Center
Wed 06:41:37 AM 57.9333 -73.4000 211° Southwest 460 529 36,000  Level Montreal Center
Wed 06:42:37 AM 57.8500 -73.5333 220° Southwest 460 529 36,000  Level Montreal Center
Wed 06:43:37 AM 57.7333 -73.6667 211° Southwest 460 529 36,000  Level Montreal Center
Wed 06:44:37 AM 57.6333 -73.8000 216° Southwest 460 529 36,000  Level Montreal Center
Wed 06:45:37 AM 57.5333 -73.9500 219° Southwest 460 529 36,000  Level Montreal Center
Wed 06:46:37 AM 57.4167 -74.0833 212° Southwest 460 529 36,000  Level Montreal Center
Wed 06:47:37 AM 57.3167 -74.2167 216° Southwest 460 529 36,000  Level Montreal Center
Wed 06:48:37 AM 57.2000 -74.3500 212° Southwest 460 529 36,000  Level Montreal Center
Wed 06:49:37 AM 57.1000 -74.4667 212° Southwest 460 529 36,000  Level Montreal Center
Wed 06:50:37 AM 56.9833 -74.6000 212° Southwest 460 529 36,000  Level Montreal Center
Wed 06:51:37 AM 56.8833 -74.7333 216° Southwest 460 529 36,000  Level Montreal Center
Wed 06:52:37 AM 56.7667 -74.8833 215° Southwest 460 529 36,000  Level Montreal Center
Wed 06:53:37 AM 56.6500 -75.0167 212° Southwest 470 541 36,000  Level Montreal Center
Wed 06:54:37 AM 56.5500 -75.1333 213° Southwest 470 541 36,000  Level Montreal Center
Wed 06:55:37 AM 56.4333 -75.2667 212° Southwest 470 541 36,000  Level Montreal Center
Wed 06:56:37 AM 56.3333 -75.3833 213° Southwest 470 541 36,000  Level Montreal Center
Wed 06:57:37 AM 56.2167 -75.5000 209° Southwest 470 541 36,000  Level Montreal Center
Wed 06:58:37 AM 56.1000 -75.6333 213° Southwest 470 541 36,000  Level Montreal Center
Wed 06:59:37 AM 56.0000 -75.7833 220° Southwest 470 541 36,000  Level Montreal Center
Wed 07:00:37 AM 55.9000 -75.9000 213° Southwest 460 529 36,000  Level Montreal Center
Wed 07:01:37 AM 55.7833 -76.0167 209° Southwest 460 529 36,000  Level Montreal Center
Wed 07:02:37 AM 55.6833 -76.1333 213° Southwest 470 541 36,000  Level Montreal Center
Wed 07:03:37 AM 55.5667 -76.2667 213° Southwest 470 541 36,000  Level Montreal Center
Wed 07:04:37 AM 55.4667 -76.3833 213° Southwest 460 529 36,000  Level Montreal Center
Wed 07:05:37 AM 55.3500 -76.5167 213° Southwest 470 541 36,000  Level Montreal Center
Wed 07:06:37 AM 55.2167 -76.6333 207° Southwest 470 541 36,000  Level Montreal Center
Wed 07:07:37 AM 55.1000 -76.7500 210° Southwest 470 541 36,000  Level Montreal Center
Wed 07:08:37 AM 55.0000 -76.8667 214° Southwest 470 541 36,000  Level Montreal Center
Wed 07:09:37 AM 54.8833 -77.0167 217° Southwest 470 541 36,000  Level Montreal Center
Wed 07:10:37 AM 54.7833 -77.1333 214° Southwest 470 541 36,000  Level Montreal Center
Wed 07:11:37 AM 54.6667 -77.2500 210° Southwest 460 529 36,000  Level Montreal Center
Wed 07:12:37 AM 54.5667 -77.3500 210° Southwest 460 529 36,000  Level Montreal Center
Wed 07:13:37 AM 54.4667 -77.4667 214° Southwest 460 529 36,000  Level Montreal Center
Wed 07:14:37 AM 54.3333 -77.5833 207° Southwest 460 529 36,000  Level Montreal Center
Wed 07:15:36 AM 54.2333 -77.6833 210° Southwest 460 529 36,000  Level Montreal Center
Wed 07:16:36 AM 54.1167 -77.8000 210° Southwest 460 529 36,000  Level Montreal Center
Wed 07:17:36 AM 54.0167 -77.9167 214° Southwest 460 529 36,000  Level Montreal Center
Wed 07:18:36 AM 53.9000 -78.0167 207° Southwest 460 529 36,000  Level Montreal Center
Wed 07:19:36 AM 53.8000 -78.1333 215° Southwest 460 529 36,000  Level Montreal Center
Wed 07:20:36 AM 53.6833 -78.2333 207° Southwest 450 518 36,000  Level Montreal Center
Wed 07:21:36 AM 53.5667 -78.3500 211° Southwest 450 518 36,000  Level Montreal Center
Wed 07:22:36 AM 53.4667 -78.4833 218° Southwest 450 518 36,000  Level Montreal Center
Wed 07:23:36 AM 53.3667 -78.5833 211° Southwest 460 529 36,000  Level Montreal Center
Wed 07:24:36 AM 53.2500 -78.7000 211° Southwest 460 529 36,000  Level Montreal Center
Wed 07:25:36 AM 53.1167 -78.8000 204° Southwest 460 529 36,000  Level Montreal Center
Wed 07:26:36 AM 53.0167 -78.9000 211° Southwest 460 529 36,000  Level Montreal Center
Wed 07:27:36 AM 52.9000 -79.0000 207° Southwest 460 529 36,000  Level Montreal Center
Wed 07:28:36 AM 52.8000 -79.1167 215° Southwest 460 529 36,000  Level Montreal Center
Wed 07:29:36 AM 52.6833 -79.2167 207° Southwest 460 529 36,000  Level Montreal Center
Wed 07:30:36 AM 52.5667 -79.3167 208° Southwest 450 518 36,000  Level Montreal Center
Wed 07:31:36 AM 52.4667 -79.4167 211° Southwest 450 518 36,000  Level Montreal Center
Wed 07:32:36 AM 52.3667 -79.5167 211° Southwest 450 518 36,000  Level Montreal Center
Wed 07:33:36 AM 52.2333 -79.6167 205° Southwest 450 518 36,000  Level Montreal Center
Wed 07:34:36 AM 52.1333 -79.7167 212° Southwest 450 518 36,000  Level Montreal Center
Wed 07:35:36 AM 52.0167 -79.8500 215° Southwest 450 518 36,000  Level Montreal Center
Wed 07:36:36 AM 51.9167 -79.9167 202° Southwest 450 518 36,000  Level Montreal Center
Wed 07:37:36 AM 51.8000 -80.0167 208° Southwest 450 518 36,000  Level Montreal Center
Wed 07:38:36 AM 51.7000 -80.1500 220° Southwest 460 529 36,000  Level Montreal Center
Wed 07:39:36 AM 51.5833 -80.2500 208° Southwest 450 518 36,000  Level Montreal Center
Wed 07:40:36 AM 51.4667 -80.3500 208° Southwest 450 518 36,000  Level Montreal Center
Wed 07:41:36 AM 51.3667 -80.4500 212° Southwest 450 518 36,000  Level Montreal Center
Wed 07:42:36 AM 51.2500 -80.5333 204° Southwest 450 518 36,000  Level Montreal Center
Wed 07:43:36 AM 51.1500 -80.6333 212° Southwest 450 518 36,000  Level Montreal Center
Wed 07:44:36 AM 51.0167 -80.7333 205° Southwest 450 518 36,000  Level Montreal Center
Wed 07:45:36 AM 50.9167 -80.8333 212° Southwest 440 506 36,000  Level Montreal Center
Wed 07:46:36 AM 50.8333 -80.9000 207° Southwest 440 506 36,000  Level Montreal Center
Wed 07:47:36 AM 50.7000 -81.0167 209° Southwest 440 506 36,000  Level Montreal Center
Wed 07:48:36 AM 50.6000 -81.0833 203° Southwest 440 506 36,000  Level Montreal Center
Wed 07:49:36 AM 50.4833 -81.1833 209° Southwest 440 506 36,000  Level Montreal Center
Wed 07:50:36 AM 50.3833 -81.2667 208° Southwest 440 506 36,000  Level Montreal Center
Wed 07:51:36 AM 50.2667 -81.3667 209° Southwest 440 506 36,000  Level Montreal Center
Wed 07:52:36 AM 50.1667 -81.4500 208° Southwest 450 518 36,000  Level Montreal Center
Wed 07:53:36 AM 50.0333 -81.5500 206° Southwest 450 518 36,000  Level Montreal Center
Wed 07:54:36 AM 49.9333 -81.6333 208° Southwest 450 518 36,000  Level Montreal Center
Wed 07:55:36 AM 49.8333 -81.7333 213° Southwest 450 518 36,000  Level Montreal Center
Wed 07:56:36 AM 49.7167 -81.8167 205° Southwest 450 518 36,000  Level Montreal Center
Wed 07:57:36 AM 49.6000 -81.9167 209° Southwest 450 518 36,000  Level Montreal Center
Wed 07:58:36 AM 49.5000 -82.0000 208° Southwest 450 518 36,000  Level Montreal Center
Wed 07:59:36 AM 49.3833 -82.1000 209° Southwest 450 518 36,000  Level Montreal Center
Wed 08:00:40 AM 49.2667 -82.1500 196° South 460 529 36,000  Level Toronto Center
Wed 08:01:40 AM 49.1500 -82.2500 209° Southwest 450 518 36,000 450 Level Toronto Center
Wed 08:02:40 AM 49.0333 -82.3500 209° Southwest 450 518 36,900 1,000 Climbing Toronto Center
Wed 08:03:40 AM 48.9333 -82.4167 204° Southwest 450 518 38,000 564 Climbing Toronto Center
Wed 08:04:37 AM 48.8167 -82.5333 213° Southwest 450 518 38,000  Level Montreal Center
Wed 08:05:37 AM 48.7000 -82.6167 205° Southwest 450 518 38,000  Level Montreal Center
Wed 08:11:47 AM 48.0250 -83.1400 205° Southwest 443 510 38,000  Level FlightAware ADS-B
Wed 08:12:27 AM 47.9530 -83.1940 207° Southwest 446 513 38,000  Level FlightAware ADS-B
Wed 08:13:12 AM 47.8700 -83.2560 207° Southwest 449 517 38,000  Level FlightAware ADS-B
Wed 08:13:52 AM 47.7960 -83.3120 207° Southwest 452 520 38,000  Level FlightAware ADS-B
Wed 08:14:32 AM 47.7210 -83.3670 206° Southwest 452 520 38,000  Level FlightAware ADS-B
Wed 08:15:17 AM 47.6360 -83.4300 207° Southwest 446 513 38,000  Level FlightAware ADS-B
Wed 08:15:57 AM 47.5620 -83.4850 207° Southwest 443 510 38,000  Level FlightAware ADS-B
Wed 08:16:42 AM 47.4820 -83.5450 207° Southwest 444 511 38,000  Level FlightAware ADS-B
Wed 08:17:22 AM 47.4090 -83.5980 206° Southwest 443 510 38,000  Level FlightAware ADS-B
Wed 08:18:02 AM 47.3360 -83.6520 207° Southwest 444 511 38,000  Level FlightAware ADS-B
Wed 08:18:47 AM 47.2510 -83.7140 206° Southwest 440 506 38,000  Level FlightAware ADS-B
Wed 08:19:27 AM 47.1790 -83.7660 206° Southwest 437 503 38,000  Level FlightAware ADS-B
Wed 08:20:12 AM 47.1000 -83.8230 206° Southwest 427 491 38,000  Level FlightAware ADS-B
Wed 08:20:52 AM 47.0290 -83.8740 206° Southwest 423 487 38,000  Level FlightAware ADS-B
Wed 08:21:32 AM 46.9590 -83.9260 207° Southwest 426 490 38,000  Level FlightAware ADS-B
Wed 08:22:17 AM 46.8780 -83.9840 206° Southwest 427 491 38,000  Level FlightAware ADS-B
Wed 08:22:57 AM 46.8060 -84.0350 206° Southwest 426 490 38,000  Level FlightAware ADS-B
Wed 08:23:42 AM 46.7290 -84.0900 206° Southwest 423 487 38,000  Level FlightAware ADS-B
Wed 08:24:22 AM 46.6590 -84.1400 206° Southwest 424 488 38,000  Level FlightAware ADS-B
Wed 08:25:02 AM 46.5890 -84.1900 206° Southwest 425 489 38,000  Level FlightAware ADS-B
Wed 08:25:47 AM 46.5070 -84.2480 206° Southwest 426 490 38,000  Level FlightAware ADS-B
Wed 08:26:27 AM 46.4360 -84.2980 206° Southwest 427 491 38,000  Level FlightAware ADS-B
Wed 08:27:12 AM 46.3580 -84.3540 206° Southwest 428 493 38,000  Level FlightAware ADS-B
Wed 08:27:52 AM 46.2870 -84.4060 207° Southwest 428 493 38,000  Level FlightAware ADS-B
Wed 08:28:32 AM 46.2170 -84.4580 207° Southwest 427 491 38,000  Level FlightAware ADS-B
Wed 08:29:12 AM 46.1470 -84.5090 207° Southwest 428 493 38,000  Level FlightAware ADS-B
Wed 08:29:52 AM 46.0750 -84.5600 206° Southwest 429 494 38,000  Level FlightAware ADS-B
Wed 08:30:42 AM 45.9860 -84.6240 207° Southwest 431 496 38,000  Level FlightAware ADS-B
Wed 08:31:22 AM 45.9150 -84.6760 207° Southwest 433 498 38,000  Level FlightAware ADS-B
Wed 08:32:02 AM 45.8430 -84.7270 206° Southwest 434 499 38,000  Level FlightAware ADS-B
Wed 08:32:47 AM 45.7640 -84.7840 207° Southwest 433 498 38,000  Level FlightAware ADS-B
Wed 08:33:27 AM 45.6900 -84.8370 207° Southwest 433 498 38,000  Level FlightAware ADS-B
Wed 08:34:07 AM 45.6190 -84.8880 207° Southwest 434 499 38,000  Level FlightAware ADS-B
Wed 08:34:52 AM 45.5390 -84.9440 206° Southwest 434 499 38,000  Level FlightAware ADS-B
Wed 08:35:32 AM 45.4660 -84.9950 206° Southwest 429 494 38,000  Level FlightAware ADS-B
Wed 08:36:17 AM 45.3870 -85.0510 206° Southwest 425 489 38,000  Level FlightAware ADS-B
Wed 08:36:57 AM 45.3170 -85.1010 207° Southwest 425 489 38,000  Level FlightAware ADS-B
Wed 08:37:42 AM 45.2370 -85.1570 206° Southwest 423 487 38,000  Level FlightAware ADS-B
Wed 08:38:22 AM 45.1670 -85.2060 206° Southwest 422 486 38,000  Level FlightAware ADS-B
Wed 08:39:02 AM 45.0990 -85.2530 206° Southwest 425 489 38,000  Level FlightAware ADS-B
Wed 08:39:47 AM 45.0180 -85.3090 206° Southwest 424 488 38,000  Level FlightAware ADS-B
Wed 08:40:27 AM 44.9460 -85.3590 206° Southwest 424 488 38,000  Level FlightAware ADS-B
Wed 08:41:12 AM 44.8670 -85.4140 206° Southwest 425 489 38,000  Level FlightAware ADS-B
Wed 08:41:47 AM 44.8070 -85.4550 206° Southwest 423 487 38,000  Level FlightAware ADS-B
Wed 08:42:32 AM 44.7290 -85.5080 206° Southwest 422 486 38,000  Level FlightAware ADS-B
Wed 08:43:17 AM 44.6520 -85.5670 209° Southwest 405 466 38,000  Level FlightAware ADS-B
Wed 08:43:57 AM 44.5920 -85.6280 216° Southwest 397 457 38,000  Level FlightAware ADS-B
Wed 08:44:42 AM 44.5260 -85.6960 216° Southwest 398 458 38,000  Level FlightAware ADS-B
Wed 08:45:17 AM 44.4740 -85.7500 217° Southwest 399 459 38,000  Level FlightAware ADS-B
Wed 08:46:02 AM 44.4060 -85.8200 216° Southwest 401 461 38,000  Level FlightAware ADS-B
Wed 08:46:47 AM 44.3390 -85.8870 216° Southwest 403 464 38,000  Level FlightAware ADS-B
Wed 08:47:27 AM 44.2790 -85.9490 217° Southwest 404 465 38,000  Level FlightAware ADS-B
Wed 08:48:12 AM 44.2090 -86.0200 216° Southwest 406 467 38,000  Level FlightAware ADS-B
Wed 08:48:52 AM 44.1510 -86.0780 216° Southwest 408 470 38,000  Level FlightAware ADS-B
Wed 08:49:32 AM 44.0870 -86.1430 216° Southwest 408 470 38,000  Level FlightAware ADS-B
Wed 08:50:17 AM 44.0200 -86.2100 216° Southwest 410 472 38,000  Level FlightAware ADS-B
Wed 08:50:57 AM 43.9590 -86.2720 216° Southwest 410 472 38,000  Level FlightAware ADS-B
Wed 08:51:42 AM 43.8900 -86.3400 215° Southwest 411 473 38,000  Level FlightAware ADS-B
Wed 08:52:22 AM 43.8280 -86.4020 216° Southwest 411 473 38,000  Level FlightAware ADS-B
Wed 08:52:57 AM 43.7750 -86.4550 216° Southwest 412 474 38,000  Level FlightAware ADS-B
Wed 08:53:47 AM 43.6960 -86.5340 216° Southwest 411 473 38,000  Level FlightAware ADS-B
Wed 08:54:27 AM 43.6350 -86.5940 215° Southwest 410 472 38,000  Level FlightAware ADS-B
Wed 08:55:12 AM 43.5640 -86.6640 216° Southwest 410 472 38,000  Level FlightAware ADS-B
Wed 08:55:47 AM 43.5100 -86.7170 215° Southwest 412 474 38,000  Level FlightAware ADS-B
Wed 08:56:32 AM 43.4410 -86.7850 216° Southwest 412 474 38,000  Level FlightAware ADS-B
Wed 08:57:17 AM 43.3710 -86.8530 215° Southwest 413 475 38,000  Level FlightAware ADS-B
Wed 08:57:52 AM 43.3210 -86.9030 216° Southwest 415 478 38,000  Level FlightAware ADS-B
Wed 08:58:52 AM 43.2260 -86.9950 215° Southwest 415 478 38,000  Level FlightAware ADS-B
Wed 08:59:37 AM 43.1510 -87.0680 215° Southwest 415 478 38,000  Level FlightAware ADS-B
Wed 09:00:17 AM 43.0910 -87.1260 215° Southwest 416 479 38,000  Level FlightAware ADS-B
Wed 09:00:57 AM 43.0310 -87.1830 215° Southwest 418 481 38,000  Level FlightAware ADS-B
Wed 09:01:42 AM 42.9560 -87.2560 215° Southwest 420 483 38,000  Level FlightAware ADS-B
Wed 09:02:22 AM 42.8950 -87.3140 215° Southwest 421 484 38,000  Level FlightAware ADS-B
Wed 09:03:02 AM 42.8310 -87.3760 215° Southwest 421 484 38,000  Level FlightAware ADS-B
Wed 09:03:42 AM 42.7640 -87.4400 215° Southwest 424 488 38,000  Level FlightAware ADS-B
Wed 09:04:27 AM 42.6940 -87.5060 215° Southwest 425 489 38,000  Level FlightAware ADS-B
Wed 09:05:12 AM 42.6200 -87.5770 215° Southwest 429 494 38,000  Level FlightAware ADS-B
Wed 09:05:52 AM 42.5540 -87.6390 215° Southwest 432 497 38,000  Level FlightAware ADS-B
Wed 09:06:37 AM 42.4810 -87.7080 215° Southwest 435 501 38,000  Level FlightAware ADS-B
Wed 09:07:17 AM 42.4170 -87.7690 215° Southwest 435 501 38,000  Level FlightAware ADS-B
Wed 09:07:52 AM 42.3580 -87.8240 215° Southwest 431 496 38,000  Level FlightAware ADS-B
Wed 09:08:42 AM 42.2760 -87.9010 215° Southwest 432 497 38,000  Level FlightAware ADS-B
Wed 09:09:22 AM 42.2080 -87.9650 215° Southwest 427 491 38,000  Level FlightAware ADS-B
Wed 09:10:02 AM 42.1490 -88.0270 218° Southwest 421 484 38,000  Level FlightAware ADS-B
Wed 09:10:42 AM 42.0860 -88.0930 218° Southwest 418 481 38,000  Level FlightAware ADS-B
Wed 09:11:27 AM 42.0190 -88.1630 218° Southwest 417 480 38,000  Level FlightAware ADS-B
Wed 09:12:12 AM 41.9520 -88.2330 218° Southwest 416 479 38,000  Level FlightAware ADS-B
Wed 09:12:52 AM 41.8900 -88.2970 218° Southwest 419 482 38,000  Level FlightAware ADS-B
Wed 09:13:37 AM 41.8180 -88.3710 217° Southwest 417 480 38,000  Level FlightAware ADS-B
Wed 09:14:17 AM 41.7580 -88.4310 217° Southwest 419 482 38,000  Level FlightAware ADS-B
Wed 09:14:57 AM 41.6860 -88.4720 203° Southwest 431 496 38,000  Level FlightAware ADS-B
Wed 09:15:42 AM 41.6050 -88.5100 199° South 430 495 38,000  Level FlightAware ADS-B
Wed 09:16:22 AM 41.5230 -88.5490 200° South 433 498 38,000  Level FlightAware ADS-B
Wed 09:17:02 AM 41.4520 -88.5900 203° Southwest 422 486 38,000  Level FlightAware ADS-B
Wed 09:17:47 AM 41.3770 -88.6500 211° Southwest 424 488 38,000  Level FlightAware ADS-B
Wed 09:18:27 AM 41.3120 -88.7020 211° Southwest 428 493 38,000  Level FlightAware ADS-B
Wed 09:19:12 AM 41.2380 -88.7680 214° Southwest 425 489 38,000  Level FlightAware ADS-B
Wed 09:19:52 AM 41.1740 -88.8280 215° Southwest 423 487 38,000  Level FlightAware ADS-B
Wed 09:20:32 AM 41.1090 -88.8870 214° Southwest 425 489 38,000  Level FlightAware ADS-B
Wed 09:21:12 AM 41.0420 -88.9480 214° Southwest 425 489 38,000  Level FlightAware ADS-B
Wed 09:21:57 AM 40.9770 -89.0200 220° Southwest 420 483 38,000  Level FlightAware ADS-B
Wed 09:22:42 AM 40.9160 -89.0920 222° Southwest 419 482 38,000  Level FlightAware ADS-B
Wed 09:23:22 AM 40.8520 -89.1690 222° Southwest 423 487 38,000  Level FlightAware ADS-B
Wed 09:24:07 AM 40.7880 -89.2460 222° Southwest 424 488 38,000  Level FlightAware ADS-B
Wed 09:24:47 AM 40.7280 -89.3170 222° Southwest 428 493 38,000  Level FlightAware ADS-B
Wed 09:25:27 AM 40.6680 -89.3810 219° Southwest 434 499 38,000  Level FlightAware ADS-B
Wed 09:26:07 AM 40.6040 -89.4460 218° Southwest 429 494 38,000  Level FlightAware ADS-B
Wed 09:26:52 AM 40.5330 -89.5180 218° Southwest 425 489 38,000  Level FlightAware ADS-B
Wed 09:27:37 AM 40.4640 -89.5870 217° Southwest 423 487 38,000  Level FlightAware ADS-B
Wed 09:28:17 AM 40.4040 -89.6490 218° Southwest 424 488 38,000  Level FlightAware ADS-B
Wed 09:28:57 AM 40.3390 -89.7140 217° Southwest 427 491 38,000  Level FlightAware ADS-B
Wed 09:29:42 AM 40.2660 -89.7870 217° Southwest 428 493 38,000  Level FlightAware ADS-B
Wed 09:30:22 AM 40.2080 -89.8440 217° Southwest 430 495 38,000  Level FlightAware ADS-B
Wed 09:31:02 AM 40.1400 -89.9130 218° Southwest 430 495 38,000  Level FlightAware ADS-B
Wed 09:31:47 AM 40.0700 -89.9820 217° Southwest 432 497 38,000  Level FlightAware ADS-B
Wed 09:32:27 AM 40.0060 -90.0470 218° Southwest 436 502 38,000  Level FlightAware ADS-B
Wed 09:33:12 AM 39.9340 -90.1170 217° Southwest 438 504 38,000  Level FlightAware ADS-B
Wed 09:33:52 AM 39.8760 -90.1750 218° Southwest 441 507 38,000  Level FlightAware ADS-B
Wed 09:34:37 AM 39.8000 -90.2500 217° Southwest 443 510 38,000  Level FlightAware ADS-B
Wed 09:35:07 AM 39.7540 -90.2950 217° Southwest 444 511 38,000  Level FlightAware ADS-B
Wed 09:35:57 AM 39.6700 -90.3780 217° Southwest 447 514 38,000  Level FlightAware ADS-B
Wed 09:36:32 AM 39.6090 -90.4370 217° Southwest 447 514 38,000  Level FlightAware ADS-B
Wed 09:37:22 AM 39.5250 -90.5180 217° Southwest 448 516 38,000  Level FlightAware ADS-B
Wed 09:38:17 AM 39.4470 -90.5950 217° Southwest 449 517 38,000  Level FlightAware ADS-B
Wed 09:38:52 AM 39.3760 -90.6630 217° Southwest 451 519 38,000  Level FlightAware ADS-B
Wed 09:39:37 AM 39.3100 -90.7250 216° Southwest 451 519 38,000  Level FlightAware ADS-B
Wed 09:40:22 AM 39.2290 -90.8060 218° Southwest 453 521 38,000  Level FlightAware ADS-B
Wed 09:40:57 AM 39.1730 -90.8590 216° Southwest 454 522 38,000  Level FlightAware ADS-B
Wed 09:41:42 AM 39.1050 -90.9230 216° Southwest 454 522 38,000  Level FlightAware ADS-B
Wed 09:42:27 AM 39.0250 -91.0000 217° Southwest 453 521 38,000  Level FlightAware ADS-B
Wed 09:43:07 AM 38.9520 -91.0710 217° Southwest 452 520 38,000  Level FlightAware ADS-B
Wed 09:44:02 AM 38.8640 -91.1550 217° Southwest 454 522 38,000  Level FlightAware ADS-B
Wed 09:44:52 AM 38.7910 -91.2220 216° Southwest 454 522 38,000  Level FlightAware ADS-B
Wed 09:45:47 AM 38.6840 -91.3250 217° Southwest 458 527 38,000  Level FlightAware ADS-B
Wed 09:46:27 AM 38.6170 -91.3890 217° Southwest 456 525 38,000  Level FlightAware ADS-B
Wed 09:47:12 AM 38.5400 -91.4610 216° Southwest 454 522 38,000  Level FlightAware ADS-B
Wed 09:47:52 AM 38.4820 -91.5140 216° Southwest 454 522 38,000  Level FlightAware ADS-B
Wed 09:48:32 AM 38.4250 -91.5680 217° Southwest 454 522 38,000  Level FlightAware ADS-B
Wed 09:49:12 AM 38.3670 -91.6220 216° Southwest 454 522 38,000  Level FlightAware ADS-B
Wed 09:49:52 AM 38.3090 -91.6750 216° Southwest 454 522 38,000  Level FlightAware ADS-B
Wed 09:50:42 AM 38.2370 -91.7420 216° Southwest 454 522 38,000  Level FlightAware ADS-B
Wed 09:51:22 AM 38.1790 -91.7950 216° Southwest 454 522 38,000  Level FlightAware ADS-B
Wed 09:52:02 AM 38.1210 -91.8490 216° Southwest 454 522 38,000  Level FlightAware ADS-B
Wed 09:52:42 AM 38.0630 -91.9020 216° Southwest 454 522 38,000  Level FlightAware ADS-B
Wed 09:53:22 AM 37.9020 -92.0540 217° Southwest 453 521 38,000  Level FlightAware ADS-B
Wed 09:54:07 AM 37.8360 -92.1150 216° Southwest 453 521 38,000  Level FlightAware ADS-B
Wed 09:54:47 AM 37.7780 -92.1680 216° Southwest 453 521 38,000  Level FlightAware ADS-B
Wed 09:55:27 AM 37.7210 -92.2210 216° Southwest 453 521 38,000  Level FlightAware ADS-B
Wed 09:56:17 AM 37.6480 -92.2870 216° Southwest 453 521 38,000  Level FlightAware ADS-B
Wed 09:56:57 AM 37.5910 -92.3400 216° Southwest 453 521 38,000  Level FlightAware ADS-B
Wed 09:57:37 AM 37.5330 -92.3930 216° Southwest 453 521 38,000  Level FlightAware ADS-B
Wed 09:58:37 AM 37.3790 -92.5310 215° Southwest 452 520 38,000  Level FlightAware ADS-B
Wed 09:59:17 AM 37.3080 -92.5940 215° Southwest 451 519 38,000  Level FlightAware ADS-B
Wed 09:59:52 AM 37.2460 -92.6510 216° Southwest 449 517 38,000  Level FlightAware ADS-B
Wed 10:00:42 AM 37.1600 -92.7280 216° Southwest 449 517 38,000  Level FlightAware ADS-B
Wed 10:01:17 AM 37.1010 -92.7810 216° Southwest 450 518 38,000  Level FlightAware ADS-B
Wed 10:02:07 AM 37.0190 -92.8540 215° Southwest 451 519 38,000  Level FlightAware ADS-B
Wed 10:02:42 AM 36.9590 -92.9070 215° Southwest 452 520 38,000  Level FlightAware ADS-B
Wed 10:03:22 AM 36.8960 -92.9630 215° Southwest 452 520 38,000  Level FlightAware ADS-B
Wed 10:04:12 AM 36.8060 -93.0430 215° Southwest 454 522 38,000  Level FlightAware ADS-B
Wed 10:04:47 AM 36.7490 -93.0950 216° Southwest 455 524 38,000  Level FlightAware ADS-B
Wed 10:05:32 AM 36.6740 -93.1600 215° Southwest 455 524 38,000  Level FlightAware ADS-B
Wed 10:06:17 AM 36.7300 -93.1110 35° Northeast 453 521 38,000  Level FlightAware ADS-B
Wed 10:07:02 AM 36.6600 -93.1720 215° Southwest 453 521 38,000  Level FlightAware ADS-B
Wed 10:07:52 AM 36.5100 -93.3050 215° Southwest 453 521 38,000  Level FlightAware ADS-B
Wed 10:08:42 AM 36.4370 -93.3680 215° Southwest 453 521 38,000  Level FlightAware ADS-B
Wed 10:09:17 AM 36.2910 -93.4960 215° Southwest 38,000  Level FlightAware ADS-B
Wed 10:10:02 AM 36.2100 -93.5670 215° Southwest 38,000  Level FlightAware ADS-B
Wed 10:11:07 AM 36.1990 -93.5760 213° Southwest 444 511 38,000  Level FlightAware ADS-B
Wed 10:11:52 AM 36.0340 -93.7190 215° Southwest 444 511 38,000  Level FlightAware ADS-B
Wed 10:12:37 AM 36.0480 -93.7070 35° Northeast 443 510 38,000  Level FlightAware ADS-B
Wed 10:13:27 AM 35.8710 -93.8600 215° Southwest 443 510 38,000  Level FlightAware ADS-B
Wed 10:14:07 AM 35.8010 -93.9200 215° Southwest 442 509 38,000  Level FlightAware ADS-B
Wed 10:14:57 AM 35.7140 -93.9940 215° Southwest 443 510 38,000  Level FlightAware ADS-B
Wed 10:15:42 AM 35.6450 -94.0520 214° Southwest 443 510 38,000  Level FlightAware ADS-B
Wed 10:16:22 AM 35.5870 -94.1000 214° Southwest 443 510 38,000  Level FlightAware ADS-B
Wed 10:17:02 AM 35.5060 -94.1720 216° Southwest 445 512 38,000  Level FlightAware ADS-B
Wed 10:17:47 AM 35.4370 -94.2290 214° Southwest 445 512 38,000  Level FlightAware ADS-B
Wed 10:18:42 AM 35.3390 -94.3260 219° Southwest 435 501 38,000  Level FlightAware ADS-B
Wed 10:19:22 AM 35.2780 -94.3920 221° Southwest 433 498 38,000  Level FlightAware ADS-B
Wed 10:20:02 AM 35.2190 -94.4560 222° Southwest 435 501 38,000  Level FlightAware ADS-B
Wed 10:20:47 AM 35.1500 -94.5310 222° Southwest 436 502 38,000  Level FlightAware ADS-B
Wed 10:21:27 AM 35.0910 -94.5950 222° Southwest 436 502 38,000  Level FlightAware ADS-B
Wed 10:22:12 AM 35.0250 -94.6670 222° Southwest 437 503 38,000  Level FlightAware ADS-B
Wed 10:22:52 AM 34.9620 -94.7350 222° Southwest 435 501 38,000  Level FlightAware ADS-B
Wed 10:23:32 AM 34.9020 -94.7990 221° Southwest 434 499 38,000  Level FlightAware ADS-B
Wed 10:24:17 AM 34.8400 -94.8650 221° Southwest 435 501 38,000  Level FlightAware ADS-B
Wed 10:25:07 AM 34.8150 -94.8920 222° Southwest 435 501 38,000  Level FlightAware ADS-B
Wed 10:25:57 AM 34.7500 -94.9610 221° Southwest 435 501 38,000  Level FlightAware ADS-B
Wed 10:26:37 AM 34.6190 -95.1030 222° Southwest 438 504 38,000  Level FlightAware ADS-B
Wed 10:27:22 AM 34.5500 -95.1750 221° Southwest 437 503 38,000  Level FlightAware ADS-B
Wed 10:28:02 AM 34.4870 -95.2420 221° Southwest 437 503 38,000 -75 Level FlightAware ADS-B
Wed 10:28:42 AM 34.4280 -95.3050 221° Southwest 438 504 37,900 -1,200 Descending FlightAware ADS-B
Wed 10:29:27 AM 34.3590 -95.3780 221° Southwest 440 506 36,300 -2,471 Descending FlightAware ADS-B
Wed 10:30:07 AM 34.2980 -95.4420 221° Southwest 441 507 34,400 -3,120 Descending FlightAware ADS-B
Wed 10:30:42 AM 34.2440 -95.4990 221° Southwest 444 511 32,400 -3,318 Descending FlightAware ADS-B
Wed 10:31:32 AM 34.1660 -95.5810 221° Southwest 448 516 29,700 -2,800 Descending FlightAware ADS-B
Wed 10:32:12 AM 34.1070 -95.6430 221° Southwest 436 502 28,200 -2,400 Descending FlightAware ADS-B
Wed 10:32:57 AM 34.0380 -95.7150 221° Southwest 426 490 26,300 -2,471 Descending FlightAware ADS-B
Wed 10:33:37 AM 33.9780 -95.7780 221° Southwest 418 481 24,700 -2,400 Descending FlightAware ADS-B
Wed 10:34:22 AM 33.9120 -95.8460 221° Southwest 409 471 22,900 -2,329 Descending FlightAware ADS-B
Wed 10:35:02 AM 33.8550 -95.9060 221° Southwest 399 459 21,400 -2,250 Descending FlightAware ADS-B
Wed 10:35:42 AM 33.7990 -95.9640 221° Southwest 389 448 19,900 -2,118 Descending FlightAware ADS-B
Wed 10:36:27 AM 33.7400 -96.0250 221° Southwest 379 436 18,400 -2,047 Descending FlightAware ADS-B
Wed 10:37:07 AM 33.6870 -96.0800 221° Southwest 371 427 17,000 -2,047 Descending FlightAware ADS-B
Wed 10:37:52 AM 33.6300 -96.1390 221° Southwest 365 420 15,500 -2,047 Descending FlightAware ADS-B
Wed 10:38:32 AM 33.5780 -96.1920 220° Southwest 360 414 14,100 -2,100 Descending FlightAware ADS-B
Wed 10:39:12 AM 33.5280 -96.2460 222° Southwest 355 409 12,700 -1,694 Descending FlightAware ADS-B
Wed 10:39:57 AM 33.4760 -96.3070 224° Southwest 331 381 11,700 -918 Descending FlightAware ADS-B
Wed 10:40:37 AM 33.4360 -96.3550 225° Southwest 301 346 11,400 -424 Descending FlightAware ADS-B
Wed 10:41:22 AM 33.3930 -96.4060 225° Southwest 269 310 11,100 -353 Descending FlightAware ADS-B
Wed 10:42:02 AM 33.3600 -96.4460 225° Southwest 258 297 10,900 -750 Descending FlightAware ADS-B
Wed 10:42:42 AM 33.3330 -96.4930 235° Southwest 264 304 10,100 -1,371 Descending FlightAware ADS-B
Wed 10:43:12 AM 33.3270 -96.5370 261° West 267 307 9,300 -1,309 Descending FlightAware ADS-B
Wed 10:43:37 AM 33.3230 -96.5710 262° West 265 305 8,900 -1,050 Descending FlightAware ADS-B
Wed 10:43:52 AM 33.3200 -96.5930 261° West 262 302 8,600 -1,067 Descending FlightAware ADS-B
Wed 10:44:22 AM 33.3140 -96.6350 260° West 255 293 8,100 -1,091 Descending FlightAware ADS-B
Wed 10:44:47 AM 33.3100 -96.6700 262° West 253 291 7,600 -1,855 Descending FlightAware ADS-B
Wed 10:45:17 AM 33.3060 -96.7100 263° West 246 283 6,400 -2,667 Descending FlightAware ADS-B
Wed 10:45:32 AM 33.3040 -96.7320 264° West 251 289 5,600 -2,550 Descending FlightAware ADS-B
Wed 10:45:57 AM 33.3010 -96.7670 264° West 264 304 4,700 -1,950 Descending FlightAware ADS-B
Wed 10:46:12 AM 33.2980 -96.7910 262° West 271 312 4,300 -800 Descending FlightAware ADS-B
Wed 10:46:42 AM 33.2940 -96.8330 264° West 243 280 4,100 -240 Descending FlightAware ADS-B
Wed 10:47:02 AM 33.2920 -96.8590 265° West 228 262 4,100  Level FlightAware ADS-B
Wed 10:47:37 AM 33.2890 -96.8990 265° West 225 259 4,100  Level FlightAware ADS-B
Wed 10:48:07 AM 33.2850 -96.9370 263° West 223 257 4,100  Level FlightAware ADS-B
Wed 10:48:32 AM 33.2830 -96.9690 266° West 220 253 4,100  Level FlightAware ADS-B
Wed 10:49:02 AM 33.2810 -97.0010 266° West 221 254 4,100  Level FlightAware ADS-B
Wed 10:49:32 AM 33.2670 -97.0320 242° Southwest 173 199 4,100  Level FlightAware ADS-B
Wed 10:49:57 AM 33.2490 -97.0450 211° Southwest 170 196 4,100  Level FlightAware ADS-B
Wed 10:50:17 AM 33.2350 -97.0520 203° Southwest 151 174 4,100  Level FlightAware ADS-B
Wed 10:50:52 AM 33.2130 -97.0530 182° South 145 167 4,100  Level FlightAware ADS-B
Wed 10:51:22 AM 33.1930 -97.0530 180° South 149 171 4,100  Level FlightAware ADS-B
Wed 10:51:42 AM 33.1790 -97.0530 180° South 147 169 4,100  Level FlightAware ADS-B
Wed 10:52:02 AM 33.1650 -97.0530 180° South 146 168 4,100  Level FlightAware ADS-B
Wed 10:52:27 AM 33.1490 -97.0540 183° South 145 167 4,100  Level FlightAware ADS-B
Wed 10:52:57 AM 33.1270 -97.0540 180° South 145 167 4,100  Level FlightAware ADS-B
Wed 10:53:12 AM 33.1180 -97.0540 180° South 143 165 4,100  Level FlightAware ADS-B
Wed 10:53:37 AM 33.1010 -97.0540 180° South 146 168 4,100 -327 Level FlightAware ADS-B
Wed 10:54:07 AM 33.0820 -97.0540 180° South 147 169 3,800 -667 Descending FlightAware ADS-B
Wed 10:54:22 AM 33.0720 -97.0540 180° South 146 168 3,600 -800 Descending FlightAware ADS-B
Wed 10:54:52 AM 33.0500 -97.0540 180° South 146 168 3,200 -764 Descending FlightAware ADS-B
Wed 10:55:17 AM 33.0340 -97.0540 180° South 144 166 2,900 -686 Descending FlightAware ADS-B
Wed 10:55:27 AM 33.0260 -97.0540 180° South 147 169 2,800 -750 Descending FlightAware ADS-B
Wed 10:55:57 AM 33.0070 -97.0540 180° South 147 169 2,400 -800 Descending FlightAware ADS-B
Wed 10:56:27 AM 32.9870 -97.0540 180° South 136 157 2,000 -700 Descending FlightAware ADS-B
Wed 10:56:57 AM 32.9670 -97.0540 180° South 132 152 1,700 -533 Descending FlightAware ADS-B
Wed 10:57:12 AM 32.9600 -97.0540 180° South 123 142 1,600 -150 Descending FlightAware ADS-B
Wed 10:57:37 AM 32.9460 -97.0540 180° South 123 142 1,600  Level FlightAware ADS-B
Wed 11:05:00 AM 32.8968 -97.0380 177° South  Level Estimated

Login

Don't have an account? Register now (free) for customized features, flight alerts, and more!